Observation data for Persimmon Gap on 10/19/2019      Previous  Date  Next       Current Mesonet Observations  Soil Data  Daily Summary Page  Observations in Plain Language
KPG1 190500Z 32011KT 29/07 A298 RMK A01 T02860068  RH  025%=      5-min Rain = 0
KPG1 190501Z 33012KT 29/07 A298 RMK A01 T02850067  RH  025%=      5-min Rain = 0
KPG1 190502Z 32008KT 29/07 A298 RMK A01 T02850068  RH  025%=      5-min Rain = 0
KPG1 190503Z 31008KT 28/07 A298 RMK A01 T02840068  RH  025%=      5-min Rain = 0
KPG1 190504Z 33007KT 28/07 A298 RMK A01 T02840067  RH  025%=      5-min Rain = 0
KPG1 190505Z 32008KT 28/07 A298 RMK A01 T02830067  RH  026%=      5-min Rain = 0
KPG1 190506Z 32008G13KT 28/07 A298 RMK A01 T02820067  RH  026%=      5-min Rain = 0
KPG1 190507Z 31008KT 28/07 A298 RMK A01 T02820067  RH  026%=      5-min Rain = 0
KPG1 190508Z 31008KT 28/07 A298 RMK A01 T02820067  RH  026%=      5-min Rain = 0
KPG1 190509Z 32012KT 28/07 A298 RMK A01 T02830067  RH  025%=      5-min Rain = 0
KPG1 190510Z 31010KT 28/07 A298 RMK A01 T02830066  RH  025%=      5-min Rain = 0
KPG1 190511Z 33010KT 28/07 A298 RMK A01 T02830066  RH  025%=      5-min Rain = 0
KPG1 190512Z 32011KT 28/07 A298 RMK A01 T02830066  RH  025%=      5-min Rain = 0
KPG1 190513Z 32010KT 28/07 A298 RMK A01 T02830066  RH  025%=      5-min Rain = 0
KPG1 190514Z 33013KT 28/07 A298 RMK A01 T02830066  RH  025%=      5-min Rain = 0
KPG1 190515Z 33009KT 28/07 A298 RMK A01 T02830066  RH  025%=      5-min Rain = 0
KPG1 190516Z 33009KT 28/07 A298 RMK A01 T02830066  RH  025%=      5-min Rain = 0
KPG1 190517Z 33009KT 28/07 A298 RMK A01 T02830066  RH  025%=      5-min Rain = 0
KPG1 190518Z 33008KT 28/07 A298 RMK A01 T02830066  RH  025%=      5-min Rain = 0
KPG1 190519Z 32009KT 28/07 A298 RMK A01 T02830066  RH  025%=      5-min Rain = 0
KPG1 190520Z 33008KT 28/07 A298 RMK A01 T02830066  RH  025%=      5-min Rain = 0
KPG1 190521Z 32011KT 28/07 A298 RMK A01 T02820065  RH  025%=      5-min Rain = 0
KPG1 190522Z 32010KT 28/07 A298 RMK A01 T02820065  RH  025%=      5-min Rain = 0
KPG1 190523Z 33009KT 28/07 A298 RMK A01 T02820065  RH  025%=      5-min Rain = 0
KPG1 190524Z 32009KT 28/07 A298 RMK A01 T02820065  RH  025%=      5-min Rain = 0
KPG1 190525Z 33010KT 28/07 A298 RMK A01 T02820065  RH  025%=      5-min Rain = 0
KPG1 190526Z 33006KT 28/07 A298 RMK A01 T02820065  RH  025%=      5-min Rain = 0
KPG1 190527Z 33007KT 28/07 A298 RMK A01 T02810065  RH  025%=      5-min Rain = 0
KPG1 190528Z 33009KT 28/07 A298 RMK A01 T02800065  RH  026%=      5-min Rain = 0
KPG1 190529Z 32010KT 28/07 A298 RMK A01 T02790065  RH  026%=      5-min Rain = 0
KPG1 190530Z 32012KT 28/07 A298 RMK A01 T02810065  RH  026%=      5-min Rain = 0
KPG1 190531Z 32012KT 28/07 A298 RMK A01 T02820065  RH  025%=      5-min Rain = 0
KPG1 190532Z 33011KT 28/07 A298 RMK A01 T02820065  RH  025%=      5-min Rain = 0
KPG1 190533Z 33007KT 28/07 A298 RMK A01 T02820065  RH  025%=      5-min Rain = 0
KPG1 190534Z 33008KT 28/07 A298 RMK A01 T02810065  RH  025%=      5-min Rain = 0
KPG1 190535Z 32009KT 28/07 A298 RMK A01 T02800065  RH  026%=      5-min Rain = 0
KPG1 190536Z 32011KT 28/06 A298 RMK A01 T02790064  RH  026%=      5-min Rain = 0
KPG1 190537Z 33008KT 28/06 A298 RMK A01 T02790064  RH  026%=      5-min Rain = 0
KPG1 190538Z 33007KT 28/06 A298 RMK A01 T02790064  RH  026%=      5-min Rain = 0
KPG1 190539Z 34008KT 28/06 A298 RMK A01 T02790064  RH  026%=      5-min Rain = 0
KPG1 190540Z 32007KT 28/06 A298 RMK A01 T02780064  RH  026%=      5-min Rain = 0
KPG1 190541Z 34006KT 28/06 A298 RMK A01 T02770064  RH  026%=      5-min Rain = 0
KPG1 190542Z 33008KT 28/06 A298 RMK A01 T02770064  RH  026%=      5-min Rain = 0
KPG1 190543Z 35007KT 28/06 A298 RMK A01 T02770064  RH  026%=      5-min Rain = 0
KPG1 190544Z 33005KT 28/06 A298 RMK A01 T02770064  RH  026%=      5-min Rain = 0
KPG1 190545Z 33006KT 28/06 A298 RMK A01 T02760063  RH  026%=      5-min Rain = 0
KPG1 190546Z 34007KT 28/06 A2981 RMK A01 T02750063  RH  026%=      5-min Rain = 0
KPG1 190547Z 34005KT 28/06 A2981 RMK A01 T02750063  RH  026%=      5-min Rain = 0
KPG1 190548Z 02002KT 27/07 A2981 RMK A01 T02740065  RH  027%=      5-min Rain = 0
KPG1 190549Z 03003KT 27/07 A2981 RMK A01 T02720067  RH  027%=      5-min Rain = 0
KPG1 190550Z 04002KT 27/07 A2981 RMK A01 T02690068  RH  028%=      5-min Rain = 0
KPG1 190551Z 17003KT 27/07 A2981 RMK A01 T02650067  RH  028%=      5-min Rain = 0
KPG1 190552Z 17003KT 26/07 A2981 RMK A01 T02580068  RH  030%=      5-min Rain = 0
KPG1 190553Z 16004KT 25/07 A2981 RMK A01 T02490068  RH  031%=      5-min Rain = 0
KPG1 190554Z 13001KT 24/07 A2981 RMK A01 T02420068  RH  033%=      5-min Rain = 0
KPG1 190555Z 15003KT 24/07 A2981 RMK A01 T02390067  RH  033%=      5-min Rain = 0
KPG1 190556Z 18002KT 24/07 A2981 RMK A01 T02370068  RH  034%=      5-min Rain = 0
KPG1 190557Z 21002KT 23/07 A2981 RMK A01 T02340068  RH  034%=      5-min Rain = 0
KPG1 190558Z 30003KT 23/07 A2981 RMK A01 T02330068  RH  035%=      5-min Rain = 0
KPG1 190559Z 24002KT 23/07 A2981 RMK A01 T02320069  RH  035%=      5-min Rain = 0
KPG1 190600Z 18003KT 23/07 A2981 RMK A01 T02320069  RH  035%=      5-min Rain = 0
KPG1 190601Z 19003KT 23/07 A2981 RMK A01 T02330069  RH  035%=      5-min Rain = 0
KPG1 190602Z 20002KT 23/07 A2981 RMK A01 T02330069  RH  035%=      5-min Rain = 0
KPG1 190603Z 25001KT 23/07 A2981 RMK A01 T02330070  RH  035%=      5-min Rain = 0
KPG1 190604Z 30003KT 23/07 A2981 RMK A01 T02320069  RH  035%=      5-min Rain = 0
KPG1 190605Z 28003KT 23/07 A2981 RMK A01 T02320070  RH  035%=      5-min Rain = 0
KPG1 190606Z 25002KT 23/07 A2981 RMK A01 T02340070  RH  035%=      5-min Rain = 0
KPG1 190607Z 20002KT 24/07 A2981 RMK A01 T02350070  RH  035%=      5-min Rain = 0
KPG1 190608Z 16001KT 24/07 A2981 RMK A01 T02350070  RH  035%=      5-min Rain = 0
KPG1 190609Z 19001KT 24/07 A2981 RMK A01 T02350070  RH  035%=      5-min Rain = 0
KPG1 190610Z 15001KT 24/07 A2981 RMK A01 T02350070  RH  035%=      5-min Rain = 0
KPG1 190611Z 10000KT 24/07 A2981 RMK A01 T02350070  RH  035%=      5-min Rain = 0
KPG1 190612Z 00001KT 23/07 A2981 RMK A01 T02330069  RH  035%=      5-min Rain = 0
KPG1 190613Z 01001KT 23/07 A2981 RMK A01 T02310068  RH  035%=      5-min Rain = 0
KPG1 190614Z 05003KT 23/07 A2981 RMK A01 T02300068  RH  035%=      5-min Rain = 0
KPG1 190615Z 06002KT 23/07 A2981 RMK A01 T02300069  RH  035%=      5-min Rain = 0
KPG1 190616Z 06003KT 23/07 A2981 RMK A01 T02290068  RH  035%=      5-min Rain = 0
KPG1 190617Z 03003KT 23/07 A2981 RMK A01 T02270067  RH  036%=      5-min Rain = 0
KPG1 190618Z 01003KT 23/07 A2981 RMK A01 T02250067  RH  036%=      5-min Rain = 0
KPG1 190619Z 02003KT 23/07 A2981 RMK A01 T02250067  RH  036%=      5-min Rain = 0
KPG1 190620Z 00003KT 23/07 A2981 RMK A01 T02250068  RH  036%=      5-min Rain = 0
KPG1 190621Z 35003KT 23/07 A2981 RMK A01 T02270068  RH  036%=      5-min Rain = 0
KPG1 190622Z 01003KT 23/07 A2981 RMK A01 T02290068  RH  035%=      5-min Rain = 0
KPG1 190623Z 35004KT 23/07 A2981 RMK A01 T02320069  RH  035%=      5-min Rain = 0
KPG1 190624Z 36005KT 24/07 A2981 RMK A01 T02350068  RH  034%=      5-min Rain = 0
KPG1 190625Z 01006KT 24/07 A2981 RMK A01 T02370067  RH  034%=      5-min Rain = 0
KPG1 190626Z 02006KT 24/07 A2981 RMK A01 T02390067  RH  033%=      5-min Rain = 0
KPG1 190627Z 06007KT 24/07 A2982 RMK A01 T02400068  RH  033%=      5-min Rain = 0
KPG1 190628Z 07009KT 24/08 A2982 RMK A01 T02410075  RH  034%=      5-min Rain = 0
KPG1 190629Z 08013KT 24/08 A2982 RMK A01 T02410084  RH  037%=      5-min Rain = 0
KPG1 190630Z 08014KT 24/11 A2982 RMK A01 T02410108  RH  043%=      5-min Rain = 0
KPG1 190631Z 07012KT 24/12 A2982 RMK A01 T02390121  RH  048%=      5-min Rain = 0
KPG1 190632Z 07012KT 24/12 A2982 RMK A01 T02370124  RH  049%=      5-min Rain = 0
KPG1 190633Z 08011KT 24/13 A2982 RMK A01 T02370125  RH  049%=      5-min Rain = 0
KPG1 190634Z 08013KT 24/12 A2982 RMK A01 T02360124  RH  049%=      5-min Rain = 0
KPG1 190635Z 07013KT 24/13 A2982 RMK A01 T02370125  RH  050%=      5-min Rain = 0
KPG1 190636Z 07012KT 24/13 A2982 RMK A01 T02360127  RH  050%=      5-min Rain = 0
KPG1 190637Z 07012KT 24/13 A2982 RMK A01 T02350127  RH  051%=      5-min Rain = 0
KPG1 190638Z 07011KT 23/13 A2982 RMK A01 T02340127  RH  051%=      5-min Rain = 0
KPG1 190639Z 06011KT 24/13 A2982 RMK A01 T02350129  RH  051%=      5-min Rain = 0
KPG1 190640Z 06008KT 23/13 A2982 RMK A01 T02340130  RH  052%=      5-min Rain = 0
KPG1 190641Z 07012KT 23/13 A2982 RMK A01 T02330128  RH  052%=      5-min Rain = 0
KPG1 190642Z 07011KT 23/13 A2982 RMK A01 T02340127  RH  051%=      5-min Rain = 0
KPG1 190643Z 06011KT 23/13 A2982 RMK A01 T02340128  RH  051%=      5-min Rain = 0
KPG1 190644Z 06012KT 23/13 A2982 RMK A01 T02340131  RH  052%=      5-min Rain = 0
KPG1 190645Z 07011KT 23/13 A2982 RMK A01 T02340132  RH  053%=      5-min Rain = 0
KPG1 190646Z 06010KT 23/13 A2983 RMK A01 T02330132  RH  053%=      5-min Rain = 0
KPG1 190647Z 06010KT 23/13 A2983 RMK A01 T02330133  RH  053%=      5-min Rain = 0
KPG1 190648Z 06010KT 23/13 A2983 RMK A01 T02320134  RH  054%=      5-min Rain = 0
KPG1 190649Z 06010KT 23/13 A2983 RMK A01 T02310134  RH  054%=      5-min Rain = 0
KPG1 190650Z 06009KT 23/13 A2983 RMK A01 T02310133  RH  054%=      5-min Rain = 0
KPG1 190651Z 06008KT 23/13 A2983 RMK A01 T02300132  RH  054%=      5-min Rain = 0
KPG1 190652Z 07007KT 23/13 A2983 RMK A01 T02310131  RH  053%=      5-min Rain = 0
KPG1 190653Z 06005KT 23/13 A2983 RMK A01 T02310128  RH  052%=      5-min Rain = 0
KPG1 190654Z 03004KT 23/13 A2983 RMK A01 T02310127  RH  052%=      5-min Rain = 0
KPG1 190655Z 03005KT 23/13 A2983 RMK A01 T02300129  RH  053%=      5-min Rain = 0
KPG1 190656Z 00006KT 23/13 A2983 RMK A01 T02280128  RH  053%=      5-min Rain = 0
KPG1 190657Z 35007KT 23/13 A2983 RMK A01 T02280130  RH  054%=      5-min Rain = 0
KPG1 190658Z 36006KT 23/13 A2983 RMK A01 T02270130  RH  054%=      5-min Rain = 0
KPG1 190659Z 01005KT 23/13 A2983 RMK A01 T02270130  RH  054%=      5-min Rain = 0
KPG1 190700Z 35004KT 23/13 A2982 RMK A01 T02270129  RH  054%=      5-min Rain = 0
KPG1 190701Z 02006KT 23/13 A2982 RMK A01 T02270127  RH  053%=      5-min Rain = 0
KPG1 190702Z 00006KT 23/13 A2983 RMK A01 T02270127  RH  053%=      5-min Rain = 0
KPG1 190703Z 35005KT 23/13 A2983 RMK A01 T02260127  RH  053%=      5-min Rain = 0
KPG1 190704Z 35005KT 23/13 A2983 RMK A01 T02260125  RH  053%=      5-min Rain = 0
KPG1 190705Z 36004KT 23/12 A2983 RMK A01 T02270123  RH  052%=      5-min Rain = 0
KPG1 190706Z 01003KT 23/12 A2983 RMK A01 T02280122  RH  051%=      5-min Rain = 0
KPG1 190707Z 02003KT 23/12 A2983 RMK A01 T02280121  RH  051%=      5-min Rain = 0
KPG1 190708Z 07002KT 23/12 A2983 RMK A01 T02280120  RH  051%=      5-min Rain = 0
KPG1 190709Z 19002KT 23/12 A2983 RMK A01 T02280121  RH  051%=      5-min Rain = 0
KPG1 190710Z 18003KT 23/12 A2983 RMK A01 T02260121  RH  052%=      5-min Rain = 0
KPG1 190711Z 17004KT 23/12 A2983 RMK A01 T02250122  RH  052%=      5-min Rain = 0
KPG1 190712Z 16004KT 22/12 A2983 RMK A01 T02240122  RH  052%=      5-min Rain = 0
KPG1 190713Z 14004KT 22/12 A2983 RMK A01 T02240123  RH  053%=      5-min Rain = 0
KPG1 190714Z 11002KT 23/13 A2983 RMK A01 T02260127  RH  054%=      5-min Rain = 0
KPG1 190715Z 08002KT 23/13 A2984 RMK A01 T02260130  RH  054%=      5-min Rain = 0
KPG1 190716Z 06001KT 23/13 A2984 RMK A01 T02260131  RH  055%=      5-min Rain = 0
KPG1 190717Z 10001KT 23/13 A2984 RMK A01 T02260131  RH  055%=      5-min Rain = 0
KPG1 190718Z 11003KT 23/13 A2984 RMK A01 T02260132  RH  055%=      5-min Rain = 0
KPG1 190719Z 15003KT 23/13 A2984 RMK A01 T02260133  RH  056%=      5-min Rain = 0
KPG1 190720Z 16002KT 23/13 A2984 RMK A01 T02250132  RH  056%=      5-min Rain = 0
KPG1 190721Z 15002KT 23/13 A2984 RMK A01 T02260132  RH  055%=      5-min Rain = 0
KPG1 190722Z 13002KT 23/13 A2984 RMK A01 T02260131  RH  055%=      5-min Rain = 0
KPG1 190723Z 12001KT 23/13 A2983 RMK A01 T02260130  RH  054%=      5-min Rain = 0
KPG1 190724Z 09002KT 23/13 A2983 RMK A01 T02260129  RH  054%=      5-min Rain = 0
KPG1 190725Z 03002KT 23/13 A2983 RMK A01 T02250127  RH  054%=      5-min Rain = 0
KPG1 190726Z 03003KT 22/13 A2983 RMK A01 T02230126  RH  054%=      5-min Rain = 0
KPG1 190727Z 03002KT 22/13 A2983 RMK A01 T02210126  RH  055%=      5-min Rain = 0
KPG1 190728Z 03002KT 22/13 A2983 RMK A01 T02200125  RH  055%=      5-min Rain = 0
KPG1 190729Z 03002KT 22/13 A2983 RMK A01 T02200125  RH  055%=      5-min Rain = 0
KPG1 190730Z 02002KT 22/13 A2984 RMK A01 T02190125  RH  055%=      5-min Rain = 0
KPG1 190731Z 04003KT 22/12 A2984 RMK A01 T02190124  RH  055%=      5-min Rain = 0
KPG1 190732Z 03003KT 22/12 A2984 RMK A01 T02200124  RH  054%=      5-min Rain = 0
KPG1 190733Z 02003KT 22/12 A2984 RMK A01 T02170121  RH  054%=      5-min Rain = 0
KPG1 190734Z 02004KT 21/12 A2984 RMK A01 T02140119  RH  055%=      5-min Rain = 0
KPG1 190735Z 02004KT 21/12 A2984 RMK A01 T02120120  RH  056%=      5-min Rain = 0
KPG1 190736Z 02004KT 21/12 A2984 RMK A01 T02120120  RH  056%=      5-min Rain = 0
KPG1 190737Z 02003KT 21/12 A2984 RMK A01 T02110120  RH  056%=      5-min Rain = 0
KPG1 190738Z 02003KT 21/12 A2984 RMK A01 T02120120  RH  056%=      5-min Rain = 0
KPG1 190739Z 02003KT 21/12 A2984 RMK A01 T02110119  RH  056%=      5-min Rain = 0
KPG1 190740Z 01003KT 21/12 A2984 RMK A01 T02100118  RH  056%=      5-min Rain = 0
KPG1 190741Z 02004KT 21/12 A2984 RMK A01 T02100117  RH  055%=      5-min Rain = 0
KPG1 190742Z 02006KT 21/12 A2984 RMK A01 T02080117  RH  056%=      5-min Rain = 0
KPG1 190743Z 03005KT 21/12 A2984 RMK A01 T02090120  RH  057%=      5-min Rain = 0
KPG1 190744Z 03004KT 21/12 A2984 RMK A01 T02120124  RH  057%=      5-min Rain = 0
KPG1 190745Z 00005KT 21/13 A2984 RMK A01 T02140125  RH  057%=      5-min Rain = 0
KPG1 190746Z 00004KT 22/12 A2984 RMK A01 T02160120  RH  054%=      5-min Rain = 0
KPG1 190747Z 35003KT 22/12 A2984 RMK A01 T02180116  RH  052%=      5-min Rain = 0
KPG1 190748Z 34005KT 22/12 A2984 RMK A01 T02190115  RH  052%=      5-min Rain = 0
KPG1 190749Z 34004KT 22/11 A2984 RMK A01 T02200113  RH  051%=      5-min Rain = 0
KPG1 190750Z 34004KT 22/11 A2984 RMK A01 T02200113  RH  051%=      5-min Rain = 0
KPG1 190751Z 33004KT 22/11 A2984 RMK A01 T02210113  RH  050%=      5-min Rain = 0
KPG1 190752Z 33004KT 22/11 A2984 RMK A01 T02230112  RH  049%=      5-min Rain = 0
KPG1 190753Z 33005KT 22/11 A2984 RMK A01 T02240110  RH  048%=      5-min Rain = 0
KPG1 190754Z 34004KT 23/11 A2984 RMK A01 T02260109  RH  048%=      5-min Rain = 0
KPG1 190755Z 35004KT 23/11 A2984 RMK A01 T02260109  RH  048%=      5-min Rain = 0
KPG1 190756Z 35003KT 22/11 A2984 RMK A01 T02230108  RH  048%=      5-min Rain = 0
KPG1 190757Z 33002KT 22/11 A2984 RMK A01 T02190108  RH  049%=      5-min Rain = 0
KPG1 190758Z 01003KT 22/11 A2984 RMK A01 T02180109  RH  050%=      5-min Rain = 0
KPG1 190759Z 04003KT 22/11 A2984 RMK A01 T02190110  RH  050%=      5-min Rain = 0
KPG1 190800Z 03003KT 22/11 A2984 RMK A01 T02160112  RH  052%=      5-min Rain = 0
KPG1 190801Z 03002KT 21/11 A2984 RMK A01 T02120114  RH  054%=      5-min Rain = 0
KPG1 190802Z 05001KT 21/12 A2984 RMK A01 T02090115  RH  055%=      5-min Rain = 0
KPG1 190803Z 06003KT 21/12 A2984 RMK A01 T02080115  RH  055%=      5-min Rain = 0
KPG1 190804Z 05004KT 21/11 A2984 RMK A01 T02070114  RH  055%=      5-min Rain = 0
KPG1 190805Z 04004KT 21/11 A2984 RMK A01 T02060114  RH  056%=      5-min Rain = 0
KPG1 190806Z 04004KT 21/12 A2984 RMK A01 T02060115  RH  056%=      5-min Rain = 0
KPG1 190807Z 05003KT 21/12 A2984 RMK A01 T02070117  RH  056%=      5-min Rain = 0
KPG1 190808Z 05003KT 21/12 A2984 RMK A01 T02090118  RH  056%=      5-min Rain = 0
KPG1 190809Z 07002KT 21/12 A2984 RMK A01 T02110118  RH  056%=      5-min Rain = 0
KPG1 190810Z 09001KT 21/12 A2984 RMK A01 T02130119  RH  055%=      5-min Rain = 0
KPG1 190811Z 05001KT 22/12 A2984 RMK A01 T02150119  RH  054%=      5-min Rain = 0
KPG1 190812Z 06000KT 22/12 A2984 RMK A01 T02160118  RH  054%=      5-min Rain = 0
KPG1 190813Z 08001KT 21/12 A2984 RMK A01 T02140115  RH  053%=      5-min Rain = 0
KPG1 190814Z 08000KT 21/11 A2985 RMK A01 T02120114  RH  054%=      5-min Rain = 0
KPG1 190815Z 16002KT 21/11 A2985 RMK A01 T02100113  RH  054%=      5-min Rain = 0
KPG1 190816Z 18002KT 21/11 A2985 RMK A01 T02080111  RH  054%=      5-min Rain = 0
KPG1 190817Z 21001KT 21/11 A2985 RMK A01 T02080110  RH  053%=      5-min Rain = 0
KPG1 190818Z 21001KT 21/11 A2985 RMK A01 T02070108  RH  053%=      5-min Rain = 0
KPG1 190819Z 19002KT 21/11 A2985 RMK A01 T02070106  RH  053%=      5-min Rain = 0
KPG1 190820Z 20002KT 21/11 A2985 RMK A01 T02060108  RH  053%=      5-min Rain = 0
KPG1 190821Z 24002KT 21/11 A2985 RMK A01 T02070111  RH  054%=      5-min Rain = 0
KPG1 190822Z 27002KT 21/11 A2985 RMK A01 T02070110  RH  054%=      5-min Rain = 0
KPG1 190823Z 28002KT 21/11 A2985 RMK A01 T02080112  RH  054%=      5-min Rain = 0
KPG1 190824Z 31002KT 21/11 A2985 RMK A01 T02080110  RH  053%=      5-min Rain = 0
KPG1 190825Z 32003KT 21/11 A2985 RMK A01 T02080109  RH  053%=      5-min Rain = 0
KPG1 190826Z 33003KT 21/11 A2985 RMK A01 T02080108  RH  053%=      5-min Rain = 0
KPG1 190827Z 33003KT 21/11 A2985 RMK A01 T02090110  RH  053%=      5-min Rain = 0
KPG1 190828Z 33002KT 21/11 A2985 RMK A01 T02110110  RH  052%=      5-min Rain = 0
KPG1 190829Z 35003KT 21/11 A2985 RMK A01 T02110108  RH  052%=      5-min Rain = 0
KPG1 190830Z 35004KT 21/11 A2985 RMK A01 T02100107  RH  052%=      5-min Rain = 0
KPG1 190831Z 01003KT 21/11 A2985 RMK A01 T02080105  RH  052%=      5-min Rain = 0
KPG1 190832Z 03003KT 20/11 A2985 RMK A01 T02040106  RH  053%=      5-min Rain = 0
KPG1 190833Z 05004KT 20/11 A2985 RMK A01 T02020106  RH  054%=      5-min Rain = 0
KPG1 190834Z 04004KT 20/11 A2985 RMK A01 T02000107  RH  055%=      5-min Rain = 0
KPG1 190835Z 04003KT 20/11 A2985 RMK A01 T01980108  RH  056%=      5-min Rain = 0
KPG1 190836Z 05003KT 20/11 A2985 RMK A01 T01970108  RH  056%=      5-min Rain = 0
KPG1 190837Z 05003KT 20/11 A2985 RMK A01 T01960108  RH  057%=      5-min Rain = 0
KPG1 190838Z 06003KT 20/11 A2985 RMK A01 T01960108  RH  057%=      5-min Rain = 0
KPG1 190839Z 07002KT 20/11 A2985 RMK A01 T01950108  RH  057%=      5-min Rain = 0
KPG1 190840Z 07002KT 19/11 A2985 RMK A01 T01940108  RH  057%=      5-min Rain = 0
KPG1 190841Z 07002KT 19/11 A2985 RMK A01 T01940109  RH  058%=      5-min Rain = 0
KPG1 190842Z 07002KT 19/11 A2985 RMK A01 T01940109  RH  058%=      5-min Rain = 0
KPG1 190843Z 08001KT 20/11 A2985 RMK A01 T01960110  RH  057%=      5-min Rain = 0
KPG1 190844Z 06002KT 20/11 A2985 RMK A01 T01960108  RH  057%=      5-min Rain = 0
KPG1 190845Z 08002KT 20/11 A2985 RMK A01 T01950107  RH  057%=      5-min Rain = 0
KPG1 190846Z 13001KT 19/11 A2985 RMK A01 T01940107  RH  057%=      5-min Rain = 0
KPG1 190847Z 12001KT 19/11 A2985 RMK A01 T01930108  RH  058%=      5-min Rain = 0
KPG1 190848Z 10001KT 20/11 A2985 RMK A01 T01950109  RH  058%=      5-min Rain = 0
KPG1 190849Z 11001KT 20/11 A2985 RMK A01 T01960111  RH  058%=      5-min Rain = 0
KPG1 190850Z 15003KT 20/11 A2985 RMK A01 T01970112  RH  058%=      5-min Rain = 0
KPG1 190851Z 14003KT 20/12 A2985 RMK A01 T01990116  RH  059%=      5-min Rain = 0
KPG1 190852Z 14004KT 20/12 A2985 RMK A01 T02010117  RH  059%=      5-min Rain = 0
KPG1 190853Z 13004KT 20/12 A2985 RMK A01 T02020119  RH  059%=      5-min Rain = 0
KPG1 190854Z 14004KT 20/12 A2985 RMK A01 T02030119  RH  058%=      5-min Rain = 0
KPG1 190855Z 14003KT 20/12 A2985 RMK A01 T02040119  RH  058%=      5-min Rain = 0
KPG1 190856Z 15002KT 21/12 A2985 RMK A01 T02050118  RH  057%=      5-min Rain = 0
KPG1 190857Z 16002KT 21/12 A2985 RMK A01 T02050119  RH  058%=      5-min Rain = 0
KPG1 190858Z 16001KT 21/12 A2985 RMK A01 T02060120  RH  058%=      5-min Rain = 0
KPG1 190859Z 17001KT 21/12 A2985 RMK A01 T02060121  RH  058%=      5-min Rain = 0
KPG1 190900Z 30000KT 21/12 A2985 RMK A01 T02070121  RH  058%=      5-min Rain = 0
KPG1 190901Z 22000KT 21/12 A2985 RMK A01 T02090122  RH  058%=      5-min Rain = 0
KPG1 190902Z 16001KT 21/12 A2985 RMK A01 T02100122  RH  057%=      5-min Rain = 0
KPG1 190903Z 19001KT 21/12 A2985 RMK A01 T02110123  RH  057%=      5-min Rain = 0
KPG1 190904Z 29002KT 21/12 A2985 RMK A01 T02120120  RH  056%=      5-min Rain = 0
KPG1 190905Z 31001KT 21/12 A2985 RMK A01 T02100115  RH  054%=      5-min Rain = 0
KPG1 190906Z 33000KT 21/12 A2985 RMK A01 T02070115  RH  055%=      5-min Rain = 0
KPG1 190907Z 06001KT 20/11 A2985 RMK A01 T02020110  RH  055%=      5-min Rain = 0
KPG1 190908Z 07002KT 20/11 A2985 RMK A01 T01970108  RH  056%=      5-min Rain = 0
KPG1 190909Z 08002KT 19/11 A2985 RMK A01 T01940108  RH  058%=      5-min Rain = 0
KPG1 190910Z 07002KT 19/11 A2985 RMK A01 T01930110  RH  059%=      5-min Rain = 0
KPG1 190911Z 04002KT 19/11 A2985 RMK A01 T01930111  RH  059%=      5-min Rain = 0
KPG1 190912Z 02002KT 19/11 A2985 RMK A01 T01930109  RH  059%=      5-min Rain = 0
KPG1 190913Z 05001KT 19/11 A2986 RMK A01 T01930112  RH  059%=      5-min Rain = 0
KPG1 190914Z 07001KT 20/11 A2986 RMK A01 T01950112  RH  058%=      5-min Rain = 0
KPG1 190915Z 03002KT 20/11 A2986 RMK A01 T01950107  RH  057%=      5-min Rain = 0
KPG1 190916Z 36003KT 19/11 A2986 RMK A01 T01910106  RH  057%=      5-min Rain = 0
KPG1 190917Z 00002KT 19/10 A2986 RMK A01 T01910102  RH  056%=      5-min Rain = 0
KPG1 190918Z 04000KT 19/10 A2986 RMK A01 T01940102  RH  055%=      5-min Rain = 0
KPG1 190919Z 00000KT 20/10 A2986 RMK A01 T01980102  RH  054%=      5-min Rain = 0
KPG1 190920Z 00000KT 20/11 A2986 RMK A01 T02010106  RH  054%=      5-min Rain = 0
KPG1 190921Z 00000KT 20/11 A2986 RMK A01 T02020111  RH  055%=      5-min Rain = 0
KPG1 190922Z 18000KT 20/11 A2986 RMK A01 T02030111  RH  055%=      5-min Rain = 0
KPG1 190923Z 18000KT 20/11 A2986 RMK A01 T02010107  RH  054%=      5-min Rain = 0
KPG1 190924Z 00000KT 20/10 A2986 RMK A01 T01960100  RH  054%=      5-min Rain = 0
KPG1 190925Z 00000KT 19/10 A2986 RMK A01 T01920097  RH  054%=      5-min Rain = 0
KPG1 190926Z 05000KT 19/10 A2986 RMK A01 T01890095  RH  055%=      5-min Rain = 0
KPG1 190927Z 03001KT 19/09 A2986 RMK A01 T01880094  RH  054%=      5-min Rain = 0
KPG1 190928Z 35001KT 19/10 A2986 RMK A01 T01900100  RH  056%=      5-min Rain = 0
KPG1 190929Z 33001KT 20/11 A2986 RMK A01 T01960107  RH  057%=      5-min Rain = 0
KPG1 190930Z 32000KT 20/11 A2986 RMK A01 T02010109  RH  055%=      5-min Rain = 0
KPG1 190931Z 31000KT 21/11 A2986 RMK A01 T02050111  RH  055%=      5-min Rain = 0
KPG1 190932Z 31001KT 21/10 A2986 RMK A01 T02060103  RH  052%=      5-min Rain = 0
KPG1 190933Z 30000KT 20/10 A2986 RMK A01 T02040101  RH  052%=      5-min Rain = 0
KPG1 190934Z 30001KT 20/10 A2986 RMK A01 T02010097  RH  051%=      5-min Rain = 0
KPG1 190935Z 29000KT 20/10 A2986 RMK A01 T01990098  RH  052%=      5-min Rain = 0
KPG1 190936Z 23001KT 20/10 A2986 RMK A01 T01970096  RH  052%=      5-min Rain = 0
KPG1 190937Z 21001KT 20/10 A2985 RMK A01 T01950098  RH  053%=      5-min Rain = 0
KPG1 190938Z 21001KT 19/11 A2985 RMK A01 T01930105  RH  056%=      5-min Rain = 0
KPG1 190939Z 34000KT 19/10 A2985 RMK A01 T01920104  RH  057%=      5-min Rain = 0
KPG1 190940Z 01001KT 19/10 A2985 RMK A01 T01890103  RH  057%=      5-min Rain = 0
KPG1 190941Z 02001KT 19/10 A2985 RMK A01 T01870103  RH  058%=      5-min Rain = 0
KPG1 190942Z 03002KT 19/10 A2985 RMK A01 T01850098  RH  057%=      5-min Rain = 0
KPG1 190943Z 04001KT 18/10 A2985 RMK A01 T01840096  RH  056%=      5-min Rain = 0
KPG1 190944Z 04002KT 19/10 A2985 RMK A01 T01850097  RH  056%=      5-min Rain = 0
KPG1 190945Z 05002KT 19/10 A2985 RMK A01 T01860102  RH  058%=      5-min Rain = 0
KPG1 190946Z 08001KT 19/10 A2985 RMK A01 T01870104  RH  059%=      5-min Rain = 0
KPG1 190947Z 08001KT 19/11 A2986 RMK A01 T01880106  RH  059%=      5-min Rain = 0
KPG1 190948Z 07000KT 19/10 A2986 RMK A01 T01870102  RH  058%=      5-min Rain = 0
KPG1 190949Z 07000KT 19/10 A2986 RMK A01 T01860102  RH  058%=      5-min Rain = 0
KPG1 190950Z 00000KT 19/11 A2986 RMK A01 T01870107  RH  059%=      5-min Rain = 0
KPG1 190951Z 13000KT 19/11 A2986 RMK A01 T01900110  RH  060%=      5-min Rain = 0
KPG1 190952Z 15002KT 19/11 A2986 RMK A01 T01930111  RH  059%=      5-min Rain = 0
KPG1 190953Z 17002KT 19/11 A2986 RMK A01 T01940108  RH  057%=      5-min Rain = 0
KPG1 190954Z 18001KT 20/10 A2986 RMK A01 T01950104  RH  056%=      5-min Rain = 0
KPG1 190955Z 24001KT 20/11 A2986 RMK A01 T01950105  RH  056%=      5-min Rain = 0
KPG1 190956Z 22002KT 20/11 A2986 RMK A01 T01970112  RH  058%=      5-min Rain = 0
KPG1 190957Z 20003KT 20/12 A2986 RMK A01 T01990115  RH  058%=      5-min Rain = 0
KPG1 190958Z 19002KT 20/11 A2986 RMK A01 T02010114  RH  057%=      5-min Rain = 0
KPG1 190959Z 21002KT 20/11 A2986 RMK A01 T02020113  RH  057%=      5-min Rain = 0
KPG1 191000Z 26003KT 20/11 A2986 RMK A01 T02010112  RH  056%=      5-min Rain = 0
KPG1 191001Z 27004KT 20/11 A2986 RMK A01 T02000110  RH  056%=      5-min Rain = 0
KPG1 191002Z 25003KT 20/11 A2986 RMK A01 T01970109  RH  057%=      5-min Rain = 0
KPG1 191003Z 23004KT 20/11 A2986 RMK A01 T01960109  RH  057%=      5-min Rain = 0
KPG1 191004Z 23003KT 20/11 A2986 RMK A01 T01960108  RH  057%=      5-min Rain = 0
KPG1 191005Z 23001KT 19/11 A2986 RMK A01 T01940107  RH  057%=      5-min Rain = 0
KPG1 191006Z 23001KT 19/11 A2986 RMK A01 T01920107  RH  058%=      5-min Rain = 0
KPG1 191007Z 26003KT 19/11 A2986 RMK A01 T01920108  RH  058%=      5-min Rain = 0
KPG1 191008Z 27002KT 19/11 A2986 RMK A01 T01920107  RH  058%=      5-min Rain = 0
KPG1 191009Z 27002KT 19/11 A2986 RMK A01 T01920107  RH  058%=      5-min Rain = 0
KPG1 191010Z 26002KT 19/11 A2986 RMK A01 T01920107  RH  058%=      5-min Rain = 0
KPG1 191011Z 19002KT 19/11 A2986 RMK A01 T01930106  RH  057%=      5-min Rain = 0
KPG1 191012Z 22002KT 20/11 A2986 RMK A01 T01950106  RH  056%=      5-min Rain = 0
KPG1 191013Z 19003KT 20/11 A2986 RMK A01 T01960106  RH  056%=      5-min Rain = 0
KPG1 191014Z 26002KT 20/11 A2986 RMK A01 T01960105  RH  056%=      5-min Rain = 0
KPG1 191015Z 26002KT 20/11 A2986 RMK A01 T01960106  RH  056%=      5-min Rain = 0
KPG1 191016Z 21001KT 20/11 A2987 RMK A01 T01960105  RH  056%=      5-min Rain = 0
KPG1 191017Z 28002KT 20/11 A2987 RMK A01 T01970105  RH  055%=      5-min Rain = 0
KPG1 191018Z 25001KT 20/11 A2987 RMK A01 T01970105  RH  055%=      5-min Rain = 0
KPG1 191019Z 20000KT 20/10 A2987 RMK A01 T01980104  RH  055%=      5-min Rain = 0
KPG1 191020Z 27000KT 20/10 A2987 RMK A01 T01990102  RH  054%=      5-min Rain = 0
KPG1 191021Z 30001KT 20/10 A2987 RMK A01 T02000103  RH  054%=      5-min Rain = 0
KPG1 191022Z 00000KT 20/10 A2987 RMK A01 T02010101  RH  053%=      5-min Rain = 0
KPG1 191023Z 30000KT 20/10 A2987 RMK A01 T02020101  RH  052%=      5-min Rain = 0
KPG1 191024Z 30000KT 20/10 A2987 RMK A01 T02020101  RH  052%=      5-min Rain = 0
KPG1 191025Z 30000KT 20/10 A2987 RMK A01 T02020102  RH  052%=      5-min Rain = 0
KPG1 191026Z 28001KT 20/10 A2987 RMK A01 T02000102  RH  053%=      5-min Rain = 0
KPG1 191027Z 24001KT 20/10 A2987 RMK A01 T01980101  RH  054%=      5-min Rain = 0
KPG1 191028Z 23001KT 20/10 A2987 RMK A01 T01970102  RH  054%=      5-min Rain = 0
KPG1 191029Z 22001KT 20/10 A2987 RMK A01 T01970099  RH  053%=      5-min Rain = 0
KPG1 191030Z 18001KT 20/10 A2987 RMK A01 T01970097  RH  052%=      5-min Rain = 0
KPG1 191031Z 18001KT 20/10 A2987 RMK A01 T01980100  RH  053%=      5-min Rain = 0
KPG1 191032Z 19002KT 20/10 A2987 RMK A01 T01990101  RH  053%=      5-min Rain = 0
KPG1 191033Z 21001KT 20/10 A2987 RMK A01 T02000101  RH  053%=      5-min Rain = 0
KPG1 191034Z 20001KT 20/10 A2988 RMK A01 T02000101  RH  053%=      5-min Rain = 0
KPG1 191035Z 23002KT 20/10 A2988 RMK A01 T02010096  RH  051%=      5-min Rain = 0
KPG1 191036Z 17002KT 20/10 A2988 RMK A01 T02020095  RH  050%=      5-min Rain = 0
KPG1 191037Z 17003KT 20/10 A2988 RMK A01 T02030100  RH  051%=      5-min Rain = 0
KPG1 191038Z 17003KT 20/10 A2988 RMK A01 T02030100  RH  052%=      5-min Rain = 0
KPG1 191039Z 17002KT 20/10 A2988 RMK A01 T02020099  RH  051%=      5-min Rain = 0
KPG1 191040Z 17002KT 20/10 A2988 RMK A01 T02010098  RH  052%=      5-min Rain = 0
KPG1 191041Z 17004KT 20/10 A2988 RMK A01 T01990097  RH  052%=      5-min Rain = 0
KPG1 191042Z 17005KT 20/10 A2988 RMK A01 T01970095  RH  052%=      5-min Rain = 0
KPG1 191043Z 16004KT 19/10 A2988 RMK A01 T01940095  RH  053%=      5-min Rain = 0
KPG1 191044Z 15005KT 19/10 A2988 RMK A01 T01910095  RH  054%=      5-min Rain = 0
KPG1 191045Z 15005KT 19/10 A2988 RMK A01 T01900095  RH  054%=      5-min Rain = 0
KPG1 191046Z 17004KT 19/09 A2988 RMK A01 T01880094  RH  054%=      5-min Rain = 0
KPG1 191047Z 17003KT 19/09 A2988 RMK A01 T01880093  RH  054%=      5-min Rain = 0
KPG1 191048Z 17002KT 19/09 A2988 RMK A01 T01870094  RH  055%=      5-min Rain = 0
KPG1 191049Z 17003KT 19/09 A2988 RMK A01 T01870093  RH  054%=      5-min Rain = 0
KPG1 191050Z 16003KT 19/09 A2988 RMK A01 T01870093  RH  054%=      5-min Rain = 0
KPG1 191051Z 20002KT 19/09 A2988 RMK A01 T01870093  RH  054%=      5-min Rain = 0
KPG1 191052Z 19002KT 19/09 A2988 RMK A01 T01870092  RH  054%=      5-min Rain = 0
KPG1 191053Z 19003KT 19/09 A2988 RMK A01 T01870091  RH  054%=      5-min Rain = 0
KPG1 191054Z 18003KT 19/09 A2988 RMK A01 T01880091  RH  053%=      5-min Rain = 0
KPG1 191055Z 19003KT 19/09 A2988 RMK A01 T01880090  RH  053%=      5-min Rain = 0
KPG1 191056Z 18003KT 19/09 A2988 RMK A01 T01880090  RH  053%=      5-min Rain = 0
KPG1 191057Z 17004KT 19/09 A2988 RMK A01 T01880090  RH  053%=      5-min Rain = 0
KPG1 191058Z 18003KT 19/09 A2988 RMK A01 T01880089  RH  052%=      5-min Rain = 0
KPG1 191059Z 19002KT 19/09 A2989 RMK A01 T01880091  RH  053%=      5-min Rain = 0
KPG1 191100Z 23002KT 19/09 A2989 RMK A01 T01870091  RH  053%=      5-min Rain = 0
KPG1 191101Z 21003KT 19/09 A2989 RMK A01 T01870090  RH  053%=      5-min Rain = 0
KPG1 191102Z 20003KT 19/09 A2989 RMK A01 T01870088  RH  052%=      5-min Rain = 0
KPG1 191103Z 21003KT 19/09 A2989 RMK A01 T01880089  RH  052%=      5-min Rain = 0
KPG1 191104Z 20003KT 19/09 A2989 RMK A01 T01890090  RH  053%=      5-min Rain = 0
KPG1 191105Z 21003KT 19/09 A2989 RMK A01 T01880089  RH  053%=      5-min Rain = 0
KPG1 191106Z 23002KT 19/09 A2989 RMK A01 T01870089  RH  053%=      5-min Rain = 0
KPG1 191107Z 24002KT 19/09 A2989 RMK A01 T01860089  RH  053%=      5-min Rain = 0
KPG1 191108Z 22002KT 19/09 A2989 RMK A01 T01850089  RH  053%=      5-min Rain = 0
KPG1 191109Z 20003KT 18/09 A2989 RMK A01 T01840088  RH  053%=      5-min Rain = 0
KPG1 191110Z 23002KT 19/09 A2989 RMK A01 T01850088  RH  053%=      5-min Rain = 0
KPG1 191111Z 20003KT 18/09 A2989 RMK A01 T01840089  RH  054%=      5-min Rain = 0
KPG1 191112Z 21002KT 18/09 A2989 RMK A01 T01830090  RH  054%=      5-min Rain = 0
KPG1 191113Z 23002KT 18/09 A2989 RMK A01 T01830090  RH  055%=      5-min Rain = 0
KPG1 191114Z 20002KT 18/09 A2989 RMK A01 T01830090  RH  054%=      5-min Rain = 0
KPG1 191115Z 22002KT 18/09 A2989 RMK A01 T01840089  RH  054%=      5-min Rain = 0
KPG1 191116Z 23001KT 19/09 A2989 RMK A01 T01850089  RH  054%=      5-min Rain = 0
KPG1 191117Z 22001KT 19/09 A2989 RMK A01 T01850089  RH  053%=      5-min Rain = 0
KPG1 191118Z 21001KT 19/09 A2989 RMK A01 T01850089  RH  053%=      5-min Rain = 0
KPG1 191119Z 22002KT 19/09 A2989 RMK A01 T01860089  RH  053%=      5-min Rain = 0
KPG1 191120Z 23002KT 19/09 A2989 RMK A01 T01860089  RH  053%=      5-min Rain = 0
KPG1 191121Z 21002KT 19/09 A2989 RMK A01 T01860089  RH  053%=      5-min Rain = 0
KPG1 191122Z 23002KT 19/09 A2989 RMK A01 T01850089  RH  054%=      5-min Rain = 0
KPG1 191123Z 23002KT 18/09 A2989 RMK A01 T01840089  RH  054%=      5-min Rain = 0
KPG1 191124Z 20001KT 18/09 A2989 RMK A01 T01830088  RH  054%=      5-min Rain = 0
KPG1 191125Z 19001KT 18/09 A2989 RMK A01 T01830088  RH  054%=      5-min Rain = 0
KPG1 191126Z 20001KT 18/09 A2989 RMK A01 T01830086  RH  053%=      5-min Rain = 0
KPG1 191127Z 19002KT 18/08 A299 RMK A01 T01840084  RH  052%=      5-min Rain = 0
KPG1 191128Z 18001KT 19/09 A299 RMK A01 T01850086  RH  052%=      5-min Rain = 0
KPG1 191129Z 23001KT 19/08 A299 RMK A01 T01850083  RH  051%=      5-min Rain = 0
KPG1 191130Z 21001KT 19/08 A299 RMK A01 T01860081  RH  050%=      5-min Rain = 0
KPG1 191131Z 24001KT 19/08 A299 RMK A01 T01870083  RH  051%=      5-min Rain = 0
KPG1 191132Z 20001KT 19/08 A299 RMK A01 T01870082  RH  050%=      5-min Rain = 0
KPG1 191133Z 21001KT 19/08 A299 RMK A01 T01870081  RH  050%=      5-min Rain = 0
KPG1 191134Z 23001KT 19/08 A299 RMK A01 T01870079  RH  049%=      5-min Rain = 0
KPG1 191135Z 28002KT 19/08 A299 RMK A01 T01880080  RH  049%=      5-min Rain = 0
KPG1 191136Z 28001KT 19/08 A299 RMK A01 T01880078  RH  049%=      5-min Rain = 0
KPG1 191137Z 29002KT 19/08 A299 RMK A01 T01890077  RH  048%=      5-min Rain = 0
KPG1 191138Z 28003KT 19/08 A299 RMK A01 T01900077  RH  048%=      5-min Rain = 0
KPG1 191139Z 28003KT 19/08 A299 RMK A01 T01910075  RH  047%=      5-min Rain = 0
KPG1 191140Z 29004KT 19/08 A299 RMK A01 T01940076  RH  046%=      5-min Rain = 0
KPG1 191141Z 27005KT 20/08 A299 RMK A01 T01970075  RH  045%=      5-min Rain = 0
KPG1 191142Z 27004KT 20/07 A299 RMK A01 T02000074  RH  044%=      5-min Rain = 0
KPG1 191143Z 28004KT 20/07 A299 RMK A01 T02030074  RH  043%=      5-min Rain = 0
KPG1 191144Z 27005KT 21/07 A299 RMK A01 T02050073  RH  043%=      5-min Rain = 0
KPG1 191145Z 28004KT 21/07 A299 RMK A01 T02060073  RH  042%=      5-min Rain = 0
KPG1 191146Z 28004KT 21/07 A299 RMK A01 T02070073  RH  042%=      5-min Rain = 0
KPG1 191147Z 28003KT 21/07 A299 RMK A01 T02080073  RH  042%=      5-min Rain = 0
KPG1 191148Z 27003KT 21/07 A299 RMK A01 T02080073  RH  042%=      5-min Rain = 0
KPG1 191149Z 23001KT 21/07 A299 RMK A01 T02070074  RH  042%=      5-min Rain = 0
KPG1 191150Z 17001KT 21/07 A299 RMK A01 T02050073  RH  043%=      5-min Rain = 0
KPG1 191151Z 16000KT 20/07 A299 RMK A01 T02030073  RH  043%=      5-min Rain = 0
KPG1 191152Z 16002KT 20/07 A299 RMK A01 T02020073  RH  043%=      5-min Rain = 0
KPG1 191153Z 17001KT 20/07 A299 RMK A01 T02010072  RH  043%=      5-min Rain = 0
KPG1 191154Z 18002KT 20/07 A299 RMK A01 T02000072  RH  044%=      5-min Rain = 0
KPG1 191155Z 25001KT 20/07 A299 RMK A01 T02000072  RH  044%=      5-min Rain = 0
KPG1 191156Z 19001KT 20/07 A299 RMK A01 T02000072  RH  044%=      5-min Rain = 0
KPG1 191157Z 17001KT 20/07 A299 RMK A01 T01990073  RH  044%=      5-min Rain = 0
KPG1 191158Z 23000KT 20/08 A299 RMK A01 T01990077  RH  045%=      5-min Rain = 0
KPG1 191159Z 23001KT 20/08 A299 RMK A01 T01980078  RH  046%=      5-min Rain = 0
KPG1 191200Z 24001KT 20/08 A299 RMK A01 T01980080  RH  046%=      5-min Rain = 0
KPG1 191201Z 23001KT 20/08 A299 RMK A01 T01980081  RH  047%=      5-min Rain = 0
KPG1 191202Z 22001KT 20/08 A299 RMK A01 T01970079  RH  046%=      5-min Rain = 0
KPG1 191203Z 19000KT 20/07 A299 RMK A01 T01970074  RH  045%=      5-min Rain = 0
KPG1 191204Z 19000KT 20/07 A299 RMK A01 T01970074  RH  045%=      5-min Rain = 0
KPG1 191205Z 04000KT 20/08 A299 RMK A01 T01950076  RH  046%=      5-min Rain = 0
KPG1 191206Z 36001KT 19/08 A299 RMK A01 T01920075  RH  046%=      5-min Rain = 0
KPG1 191207Z 35001KT 19/08 A299 RMK A01 T01910075  RH  047%=      5-min Rain = 0
KPG1 191208Z 36001KT 19/07 A299 RMK A01 T01890074  RH  047%=      5-min Rain = 0
KPG1 191209Z 01001KT 19/07 A299 RMK A01 T01880074  RH  047%=      5-min Rain = 0
KPG1 191210Z 01001KT 19/08 A299 RMK A01 T01880075  RH  048%=      5-min Rain = 0
KPG1 191211Z 00001KT 19/08 A299 RMK A01 T01880076  RH  048%=      5-min Rain = 0
KPG1 191212Z 00002KT 19/08 A299 RMK A01 T01880076  RH  048%=      5-min Rain = 0
KPG1 191213Z 36001KT 19/08 A299 RMK A01 T01880077  RH  048%=      5-min Rain = 0
KPG1 191214Z 36002KT 19/08 A299 RMK A01 T01880077  RH  048%=      5-min Rain = 0
KPG1 191215Z 01003KT 19/08 A299 RMK A01 T01880077  RH  049%=      5-min Rain = 0
KPG1 191216Z 02003KT 19/08 A299 RMK A01 T01880077  RH  048%=      5-min Rain = 0
KPG1 191217Z 02003KT 19/08 A299 RMK A01 T01870076  RH  049%=      5-min Rain = 0
KPG1 191218Z 02003KT 19/08 A299 RMK A01 T01850077  RH  049%=      5-min Rain = 0
KPG1 191219Z 01003KT 19/08 A299 RMK A01 T01850077  RH  049%=      5-min Rain = 0
KPG1 191220Z 01003KT 19/08 A299 RMK A01 T01860077  RH  049%=      5-min Rain = 0
KPG1 191221Z 02002KT 19/08 A299 RMK A01 T01860077  RH  049%=      5-min Rain = 0
KPG1 191222Z 02002KT 19/08 A2991 RMK A01 T01850076  RH  049%=      5-min Rain = 0
KPG1 191223Z 03003KT 18/08 A2991 RMK A01 T01810075  RH  050%=      5-min Rain = 0
KPG1 191224Z 02003KT 18/08 A2991 RMK A01 T01780076  RH  051%=      5-min Rain = 0
KPG1 191225Z 04003KT 18/08 A2991 RMK A01 T01760080  RH  054%=      5-min Rain = 0
KPG1 191226Z 05002KT 17/08 A2991 RMK A01 T01740082  RH  055%=      5-min Rain = 0
KPG1 191227Z 04002KT 17/08 A2991 RMK A01 T01740081  RH  054%=      5-min Rain = 0
KPG1 191228Z 03002KT 18/08 A2991 RMK A01 T01750077  RH  052%=      5-min Rain = 0
KPG1 191229Z 02002KT 18/08 A2991 RMK A01 T01780076  RH  051%=      5-min Rain = 0
KPG1 191230Z 03001KT 18/08 A2991 RMK A01 T01810077  RH  050%=      5-min Rain = 0
KPG1 191231Z 04001KT 18/08 A2991 RMK A01 T01840077  RH  049%=      5-min Rain = 0
KPG1 191232Z 04001KT 19/08 A2991 RMK A01 T01850076  RH  049%=      5-min Rain = 0
KPG1 191233Z 04002KT 19/08 A2991 RMK A01 T01850075  RH  049%=      5-min Rain = 0
KPG1 191234Z 04002KT 19/08 A2991 RMK A01 T01870076  RH  048%=      5-min Rain = 0
KPG1 191235Z 03002KT 19/08 A2991 RMK A01 T01890076  RH  048%=      5-min Rain = 0
KPG1 191236Z 02002KT 19/08 A2991 RMK A01 T01890075  RH  048%=      5-min Rain = 0
KPG1 191237Z 03001KT 19/08 A2991 RMK A01 T01890075  RH  047%=      5-min Rain = 0
KPG1 191238Z 06001KT 19/08 A2991 RMK A01 T01910076  RH  047%=      5-min Rain = 0
KPG1 191239Z 07000KT 19/08 A2991 RMK A01 T01900075  RH  047%=      5-min Rain = 0
KPG1 191240Z 15002KT 19/08 A2991 RMK A01 T01900076  RH  047%=      5-min Rain = 0
KPG1 191241Z 15003KT 19/07 A2991 RMK A01 T01900074  RH  047%=      5-min Rain = 0
KPG1 191242Z 16003KT 19/07 A2991 RMK A01 T01900074  RH  047%=      5-min Rain = 0
KPG1 191243Z 16005KT 19/07 A2991 RMK A01 T01890073  RH  047%=      5-min Rain = 0
KPG1 191244Z 16005KT 19/07 A2991 RMK A01 T01860072  RH  048%=      5-min Rain = 0
KPG1 191245Z 15006KT 18/07 A2992 RMK A01 T01830072  RH  048%=      5-min Rain = 0
KPG1 191246Z 14005KT 18/07 A2992 RMK A01 T01810072  RH  049%=      5-min Rain = 0
KPG1 191247Z 15004KT 18/07 A2992 RMK A01 T01800072  RH  049%=      5-min Rain = 0
KPG1 191248Z 16003KT 18/07 A2992 RMK A01 T01780072  RH  050%=      5-min Rain = 0
KPG1 191249Z 17003KT 18/07 A2992 RMK A01 T01750073  RH  051%=      5-min Rain = 0
KPG1 191250Z 21002KT 17/07 A2992 RMK A01 T01720073  RH  052%=      5-min Rain = 0
KPG1 191251Z 22003KT 17/07 A2992 RMK A01 T01700073  RH  053%=      5-min Rain = 0
KPG1 191252Z 22002KT 17/07 A2992 RMK A01 T01680073  RH  053%=      5-min Rain = 0
KPG1 191253Z 24002KT 17/07 A2992 RMK A01 T01680074  RH  054%=      5-min Rain = 0
KPG1 191254Z 22002KT 17/07 A2992 RMK A01 T01670074  RH  054%=      5-min Rain = 0
KPG1 191255Z 22002KT 17/07 A2992 RMK A01 T01670074  RH  054%=      5-min Rain = 0
KPG1 191256Z 19002KT 17/07 A2992 RMK A01 T01680074  RH  054%=      5-min Rain = 0
KPG1 191257Z 19002KT 17/08 A2992 RMK A01 T01690075  RH  054%=      5-min Rain = 0
KPG1 191258Z 19002KT 17/08 A2992 RMK A01 T01700075  RH  054%=      5-min Rain = 0
KPG1 191259Z 22001KT 17/08 A2992 RMK A01 T01700075  RH  053%=      5-min Rain = 0
KPG1 191300Z 22002KT 17/08 A2992 RMK A01 T01700075  RH  053%=      5-min Rain = 0
KPG1 191301Z 22002KT 17/08 A2992 RMK A01 T01700075  RH  053%=      5-min Rain = 0
KPG1 191302Z 21002KT 17/08 A2992 RMK A01 T01700075  RH  053%=      5-min Rain = 0
KPG1 191303Z 19003KT 17/08 A2992 RMK A01 T01700075  RH  053%=      5-min Rain = 0
KPG1 191304Z 19003KT 17/08 A2992 RMK A01 T01700075  RH  054%=      5-min Rain = 0
KPG1 191305Z 20002KT 17/08 A2992 RMK A01 T01700075  RH  054%=      5-min Rain = 0
KPG1 191306Z 23002KT 17/08 A2992 RMK A01 T01700075  RH  054%=      5-min Rain = 0
KPG1 191307Z 22003KT 17/08 A2992 RMK A01 T01700075  RH  054%=      5-min Rain = 0
KPG1 191308Z 23003KT 17/07 A2992 RMK A01 T01680074  RH  054%=      5-min Rain = 0
KPG1 191309Z 22003KT 17/07 A2992 RMK A01 T01670074  RH  054%=      5-min Rain = 0
KPG1 191310Z 22002KT 17/07 A2992 RMK A01 T01660074  RH  054%=      5-min Rain = 0
KPG1 191311Z 23001KT 17/07 A2992 RMK A01 T01650073  RH  054%=      5-min Rain = 0
KPG1 191312Z 22001KT 17/07 A2992 RMK A01 T01650072  RH  054%=      5-min Rain = 0
KPG1 191313Z 24002KT 17/07 A2992 RMK A01 T01660072  RH  054%=      5-min Rain = 0
KPG1 191314Z 24001KT 17/07 A2992 RMK A01 T01660071  RH  054%=      5-min Rain = 0
KPG1 191315Z 23000KT 17/07 A2992 RMK A01 T01660071  RH  053%=      5-min Rain = 0
KPG1 191316Z 12000KT 17/07 A2993 RMK A01 T01670071  RH  053%=      5-min Rain = 0
KPG1 191317Z 22001KT 17/07 A2993 RMK A01 T01670071  RH  053%=      5-min Rain = 0
KPG1 191318Z 23002KT 17/07 A2993 RMK A01 T01680070  RH  053%=      5-min Rain = 0
KPG1 191319Z 22002KT 17/07 A2993 RMK A01 T01670070  RH  052%=      5-min Rain = 0
KPG1 191320Z 20001KT 17/07 A2993 RMK A01 T01680071  RH  052%=      5-min Rain = 0
KPG1 191321Z 18001KT 17/07 A2993 RMK A01 T01690071  RH  052%=      5-min Rain = 0
KPG1 191322Z 17001KT 17/07 A2993 RMK A01 T01700071  RH  052%=      5-min Rain = 0
KPG1 191323Z 21001KT 17/07 A2993 RMK A01 T01700071  RH  052%=      5-min Rain = 0
KPG1 191324Z 25001KT 17/07 A2993 RMK A01 T01700071  RH  052%=      5-min Rain = 0
KPG1 191325Z 26001KT 17/07 A2993 RMK A01 T01690071  RH  052%=      5-min Rain = 0
KPG1 191326Z 00000KT 17/07 A2993 RMK A01 T01690071  RH  052%=      5-min Rain = 0
KPG1 191327Z 00000KT 17/07 A2993 RMK A01 T01690070  RH  052%=      5-min Rain = 0
KPG1 191328Z 17000KT 17/07 A2993 RMK A01 T01690071  RH  052%=      5-min Rain = 0
KPG1 191329Z 19001KT 17/07 A2993 RMK A01 T01680071  RH  053%=      5-min Rain = 0
KPG1 191330Z 20000KT 17/07 A2993 RMK A01 T01670072  RH  053%=      5-min Rain = 0
KPG1 191331Z 00000KT 17/07 A2993 RMK A01 T01660072  RH  054%=      5-min Rain = 0
KPG1 191332Z 00000KT 17/07 A2993 RMK A01 T01650072  RH  054%=      5-min Rain = 0
KPG1 191333Z 19001KT 16/07 A2993 RMK A01 T01620071  RH  055%=      5-min Rain = 0
KPG1 191334Z 05002KT 16/07 A2993 RMK A01 T01580070  RH  056%=      5-min Rain = 0
KPG1 191335Z 06002KT 16/07 A2993 RMK A01 T01550071  RH  057%=      5-min Rain = 0
KPG1 191336Z 06002KT 15/07 A2993 RMK A01 T01540072  RH  058%=      5-min Rain = 0
KPG1 191337Z 06002KT 15/07 A2993 RMK A01 T01530072  RH  058%=      5-min Rain = 0
KPG1 191338Z 05002KT 15/07 A2993 RMK A01 T01540073  RH  059%=      5-min Rain = 0
KPG1 191339Z 06002KT 15/07 A2993 RMK A01 T01530073  RH  059%=      5-min Rain = 0
KPG1 191340Z 08001KT 15/07 A2993 RMK A01 T01540073  RH  058%=      5-min Rain = 0
KPG1 191341Z 09000KT 16/07 A2993 RMK A01 T01550073  RH  058%=      5-min Rain = 0
KPG1 191342Z 16000KT 16/07 A2993 RMK A01 T01570073  RH  058%=      5-min Rain = 0
KPG1 191343Z 16001KT 16/07 A2993 RMK A01 T01580073  RH  057%=      5-min Rain = 0
KPG1 191344Z 17001KT 16/07 A2993 RMK A01 T01590073  RH  057%=      5-min Rain = 0
KPG1 191345Z 17000KT 16/07 A2993 RMK A01 T01590074  RH  057%=      5-min Rain = 0
KPG1 191346Z 17001KT 16/07 A2993 RMK A01 T01580073  RH  057%=      5-min Rain = 0
KPG1 191347Z 18002KT 16/07 A2993 RMK A01 T01590072  RH  056%=      5-min Rain = 0
KPG1 191348Z 19002KT 16/07 A2993 RMK A01 T01620071  RH  055%=      5-min Rain = 0
KPG1 191349Z 20003KT 17/07 A2993 RMK A01 T01650072  RH  054%=      5-min Rain = 0
KPG1 191350Z 20003KT 17/07 A2993 RMK A01 T01680072  RH  053%=      5-min Rain = 0
KPG1 191351Z 19003KT 17/07 A2993 RMK A01 T01710072  RH  052%=      5-min Rain = 0
KPG1 191352Z 19004KT 17/07 A2993 RMK A01 T01740072  RH  051%=      5-min Rain = 0
KPG1 191353Z 19003KT 18/07 A2993 RMK A01 T01760073  RH  051%=      5-min Rain = 0
KPG1 191354Z 20003KT 18/07 A2993 RMK A01 T01770074  RH  051%=      5-min Rain = 0
KPG1 191355Z 20002KT 18/07 A2993 RMK A01 T01780074  RH  050%=      5-min Rain = 0
KPG1 191356Z 19002KT 18/07 A2993 RMK A01 T01790074  RH  050%=      5-min Rain = 0
KPG1 191357Z 20003KT 18/08 A2993 RMK A01 T01810075  RH  050%=      5-min Rain = 0
KPG1 191358Z 21003KT 18/08 A2993 RMK A01 T01840075  RH  049%=      5-min Rain = 0
KPG1 191359Z 20003KT 19/08 A2993 RMK A01 T01870076  RH  048%=      5-min Rain = 0
KPG1 191400Z 19004KT 19/08 A2993 RMK A01 T01890076  RH  048%=      5-min Rain = 0
KPG1 191401Z 19004KT 19/08 A2993 RMK A01 T01910076  RH  047%=      5-min Rain = 0
KPG1 191402Z 18004KT 19/08 A2993 RMK A01 T01930077  RH  047%=      5-min Rain = 0
KPG1 191403Z 18005KT 20/08 A2993 RMK A01 T01950076  RH  046%=      5-min Rain = 0
KPG1 191404Z 18005KT 20/08 A2993 RMK A01 T01950076  RH  046%=      5-min Rain = 0
KPG1 191405Z 18005KT 20/08 A2993 RMK A01 T01960075  RH  045%=      5-min Rain = 0
KPG1 191406Z 18005KT 20/08 A2993 RMK A01 T01960075  RH  045%=      5-min Rain = 0
KPG1 191407Z 18005KT 20/08 A2993 RMK A01 T01970075  RH  045%=      5-min Rain = 0
KPG1 191408Z 19005KT 20/08 A2993 RMK A01 T01980075  RH  045%=      5-min Rain = 0
KPG1 191409Z 17004KT 20/08 A2993 RMK A01 T01990075  RH  045%=      5-min Rain = 0
KPG1 191410Z 16005KT 20/08 A2993 RMK A01 T02000076  RH  045%=      5-min Rain = 0
KPG1 191411Z 17004KT 20/08 A2993 RMK A01 T02000076  RH  045%=      5-min Rain = 0
KPG1 191412Z 17004KT 20/08 A2994 RMK A01 T02010076  RH  044%=      5-min Rain = 0
KPG1 191413Z 18004KT 20/08 A2994 RMK A01 T02020075  RH  044%=      5-min Rain = 0
KPG1 191414Z 17004KT 20/07 A2994 RMK A01 T02020074  RH  044%=      5-min Rain = 0
KPG1 191415Z 18004KT 20/08 A2994 RMK A01 T02020075  RH  044%=      5-min Rain = 0
KPG1 191416Z 18005KT 20/08 A2994 RMK A01 T02030075  RH  044%=      5-min Rain = 0
KPG1 191417Z 18004KT 20/07 A2994 RMK A01 T02040074  RH  043%=      5-min Rain = 0
KPG1 191418Z 18004KT 21/07 A2994 RMK A01 T02050074  RH  043%=      5-min Rain = 0
KPG1 191419Z 18005KT 21/07 A2994 RMK A01 T02050074  RH  043%=      5-min Rain = 0
KPG1 191420Z 19005KT 21/07 A2994 RMK A01 T02060074  RH  043%=      5-min Rain = 0
KPG1 191421Z 19005KT 21/07 A2994 RMK A01 T02060074  RH  042%=      5-min Rain = 0
KPG1 191422Z 21004KT 21/07 A2994 RMK A01 T02050074  RH  043%=      5-min Rain = 0
KPG1 191423Z 21004KT 21/07 A2994 RMK A01 T02050074  RH  043%=      5-min Rain = 0
KPG1 191424Z 19005KT 20/07 A2994 RMK A01 T02030073  RH  043%=      5-min Rain = 0
KPG1 191425Z 19003KT 20/07 A2994 RMK A01 T02030074  RH  043%=      5-min Rain = 0
KPG1 191426Z 21003KT 21/07 A2994 RMK A01 T02050074  RH  043%=      5-min Rain = 0
KPG1 191427Z 19004KT 21/07 A2994 RMK A01 T02050074  RH  043%=      5-min Rain = 0
KPG1 191428Z 19005KT 21/08 A2994 RMK A01 T02050075  RH  043%=      5-min Rain = 0
KPG1 191429Z 18004KT 21/08 A2994 RMK A01 T02070075  RH  043%=      5-min Rain = 0
KPG1 191430Z 18005KT 21/08 A2994 RMK A01 T02090076  RH  042%=      5-min Rain = 0
KPG1 191431Z 20005KT 21/08 A2994 RMK A01 T02110076  RH  042%=      5-min Rain = 0
KPG1 191432Z 21005KT 21/08 A2995 RMK A01 T02120076  RH  041%=      5-min Rain = 0
KPG1 191433Z 21005KT 21/08 A2995 RMK A01 T02120076  RH  041%=      5-min Rain = 0
KPG1 191434Z 19004KT 21/08 A2995 RMK A01 T02120076  RH  041%=      5-min Rain = 0
KPG1 191435Z 20005KT 21/08 A2995 RMK A01 T02130077  RH  041%=      5-min Rain = 0
KPG1 191436Z 19004KT 21/08 A2995 RMK A01 T02130077  RH  041%=      5-min Rain = 0
KPG1 191437Z 20005KT 21/08 A2995 RMK A01 T02140077  RH  041%=      5-min Rain = 0
KPG1 191438Z 19005KT 22/08 A2995 RMK A01 T02150077  RH  041%=      5-min Rain = 0
KPG1 191439Z 19005KT 22/08 A2995 RMK A01 T02160076  RH  041%=      5-min Rain = 0
KPG1 191440Z 20005KT 22/08 A2995 RMK A01 T02170077  RH  041%=      5-min Rain = 0
KPG1 191441Z 21005KT 22/08 A2995 RMK A01 T02190076  RH  040%=      5-min Rain = 0
KPG1 191442Z 22005KT 22/08 A2995 RMK A01 T02190077  RH  040%=      5-min Rain = 0
KPG1 191443Z 23005KT 22/08 A2995 RMK A01 T02200076  RH  040%=      5-min Rain = 0
KPG1 191444Z 23005KT 22/07 A2995 RMK A01 T02210074  RH  039%=      5-min Rain = 0
KPG1 191445Z 23005KT 22/07 A2995 RMK A01 T02220072  RH  038%=      5-min Rain = 0
KPG1 191446Z 23006KT 22/07 A2995 RMK A01 T02240070  RH  037%=      5-min Rain = 0
KPG1 191447Z 22005KT 23/07 A2995 RMK A01 T02260070  RH  036%=      5-min Rain = 0
KPG1 191448Z 22006KT 23/07 A2995 RMK A01 T02270069  RH  036%=      5-min Rain = 0
KPG1 191449Z 24006KT 23/07 A2995 RMK A01 T02280068  RH  036%=      5-min Rain = 0
KPG1 191450Z 23006KT 23/07 A2996 RMK A01 T02300069  RH  035%=      5-min Rain = 0
KPG1 191451Z 24007KT 23/07 A2996 RMK A01 T02310069  RH  035%=      5-min Rain = 0
KPG1 191452Z 23005KT 23/07 A2996 RMK A01 T02310068  RH  035%=      5-min Rain = 0
KPG1 191453Z 23006KT 23/07 A2996 RMK A01 T02310067  RH  035%=      5-min Rain = 0
KPG1 191454Z 25007KT 23/07 A2996 RMK A01 T02310066  RH  034%=      5-min Rain = 0
KPG1 191455Z 24006KT 23/07 A2996 RMK A01 T02320066  RH  034%=      5-min Rain = 0
KPG1 191456Z 23007KT 23/07 A2996 RMK A01 T02340065  RH  034%=      5-min Rain = 0
KPG1 191457Z 24007KT 23/06 A2996 RMK A01 T02340064  RH  033%=      5-min Rain = 0
KPG1 191458Z 25008KT 23/06 A2996 RMK A01 T02340064  RH  033%=      5-min Rain = 0
KPG1 191459Z 26005KT 24/06 A2996 RMK A01 T02350062  RH  033%=      5-min Rain = 0
KPG1 191500Z 23006KT 23/06 A2996 RMK A01 T02340063  RH  033%=      5-min Rain = 0
KPG1 191501Z 25008KT 24/06 A2996 RMK A01 T02350064  RH  033%=      5-min Rain = 0
KPG1 191502Z 26008KT 24/06 A2996 RMK A01 T02360063  RH  033%=      5-min Rain = 0
KPG1 191503Z 26008KT 24/06 A2996 RMK A01 T02360062  RH  032%=      5-min Rain = 0
KPG1 191504Z 26008KT 24/06 A2996 RMK A01 T02360060  RH  032%=      5-min Rain = 0
KPG1 191505Z 26007KT 24/06 A2996 RMK A01 T02370060  RH  032%=      5-min Rain = 0
KPG1 191506Z 27006KT 24/06 A2996 RMK A01 T02370061  RH  032%=      5-min Rain = 0
KPG1 191507Z 25008KT 24/06 A2996 RMK A01 T02370062  RH  032%=      5-min Rain = 0
KPG1 191508Z 26009KT 24/06 A2996 RMK A01 T02380061  RH  032%=      5-min Rain = 0
KPG1 191509Z 26009KT 24/06 A2996 RMK A01 T02380059  RH  032%=      5-min Rain = 0
KPG1 191510Z 26008KT 24/06 A2996 RMK A01 T02380060  RH  032%=      5-min Rain = 0
KPG1 191511Z 26010KT 24/06 A2996 RMK A01 T02370060  RH  032%=      5-min Rain = 0
KPG1 191512Z 27008KT 24/06 A2996 RMK A01 T02370058  RH  032%=      5-min Rain = 0
KPG1 191513Z 26009KT 24/06 A2996 RMK A01 T02370058  RH  031%=      5-min Rain = 0
KPG1 191514Z 27009KT 24/06 A2996 RMK A01 T02370059  RH  032%=      5-min Rain = 0
KPG1 191515Z 27009KT 24/06 A2996 RMK A01 T02370059  RH  032%=      5-min Rain = 0
KPG1 191516Z 25007KT 24/06 A2996 RMK A01 T02380059  RH  032%=      5-min Rain = 0
KPG1 191517Z 26007KT 24/06 A2996 RMK A01 T02390060  RH  032%=      5-min Rain = 0
KPG1 191518Z 26008KT 24/06 A2996 RMK A01 T02400058  RH  031%=      5-min Rain = 0
KPG1 191519Z 25007KT 24/06 A2996 RMK A01 T02420057  RH  030%=      5-min Rain = 0
KPG1 191520Z 26007KT 24/06 A2996 RMK A01 T02440058  RH  030%=      5-min Rain = 0
KPG1 191521Z 25008KT 25/06 A2996 RMK A01 T02450057  RH  030%=      5-min Rain = 0
KPG1 191522Z 26007KT 25/06 A2996 RMK A01 T02450057  RH  030%=      5-min Rain = 0
KPG1 191523Z 26009KT 25/06 A2996 RMK A01 T02460055  RH  029%=      5-min Rain = 0
KPG1 191524Z 26007KT 25/06 A2996 RMK A01 T02460055  RH  029%=      5-min Rain = 0
KPG1 191525Z 26007KT 25/06 A2995 RMK A01 T02460056  RH  029%=      5-min Rain = 0
KPG1 191526Z 28007KT 25/05 A2995 RMK A01 T02460054  RH  029%=      5-min Rain = 0
KPG1 191527Z 28008KT 25/05 A2995 RMK A01 T02470052  RH  028%=      5-min Rain = 0
KPG1 191528Z 29009KT 25/05 A2995 RMK A01 T02470052  RH  028%=      5-min Rain = 0
KPG1 191529Z 28006KT 25/05 A2995 RMK A01 T02470052  RH  028%=      5-min Rain = 0
KPG1 191530Z 25007KT 25/05 A2995 RMK A01 T02470053  RH  029%=      5-min Rain = 0
KPG1 191531Z 26009KT 25/05 A2996 RMK A01 T02490054  RH  028%=      5-min Rain = 0
KPG1 191532Z 26007KT 25/05 A2996 RMK A01 T02500053  RH  028%=      5-min Rain = 0
KPG1 191533Z 25009KT 25/05 A2996 RMK A01 T02500052  RH  028%=      5-min Rain = 0
KPG1 191534Z 26010KT 25/05 A2996 RMK A01 T02500049  RH  027%=      5-min Rain = 0
KPG1 191535Z 25008KT 25/05 A2996 RMK A01 T02490049  RH  028%=      5-min Rain = 0
KPG1 191536Z 24008KT 25/05 A2996 RMK A01 T02490051  RH  028%=      5-min Rain = 0
KPG1 191537Z 25008KT 25/05 A2996 RMK A01 T02510052  RH  028%=      5-min Rain = 0
KPG1 191538Z 25009KT 25/05 A2996 RMK A01 T02510052  RH  028%=      5-min Rain = 0
KPG1 191539Z 24007KT 25/05 A2996 RMK A01 T02510051  RH  028%=      5-min Rain = 0
KPG1 191540Z 24008KT 25/05 A2996 RMK A01 T02510050  RH  027%=      5-min Rain = 0
KPG1 191541Z 25008KT 25/05 A2996 RMK A01 T02510051  RH  027%=      5-min Rain = 0
KPG1 191542Z 25007KT 25/05 A2996 RMK A01 T02530051  RH  027%=      5-min Rain = 0
KPG1 191543Z 26008KT 25/05 A2996 RMK A01 T02540050  RH  027%=      5-min Rain = 0
KPG1 191544Z 27007KT 25/05 A2996 RMK A01 T02540050  RH  027%=      5-min Rain = 0
KPG1 191545Z 27007KT 25/05 A2996 RMK A01 T02540048  RH  027%=      5-min Rain = 0
KPG1 191546Z 28009KT 25/05 A2996 RMK A01 T02540047  RH  026%=      5-min Rain = 0
KPG1 191547Z 26008KT 25/05 A2996 RMK A01 T02530047  RH  026%=      5-min Rain = 0
KPG1 191548Z 25007KT 25/05 A2996 RMK A01 T02540047  RH  026%=      5-min Rain = 0
KPG1 191549Z 24010KT 26/05 A2996 RMK A01 T02560049  RH  026%=      5-min Rain = 0
KPG1 191550Z 26009KT 26/05 A2996 RMK A01 T02560049  RH  026%=      5-min Rain = 0
KPG1 191551Z 26007KT 26/05 A2996 RMK A01 T02570049  RH  026%=      5-min Rain = 0
KPG1 191552Z 28009KT 26/05 A2996 RMK A01 T02580048  RH  026%=      5-min Rain = 0
KPG1 191553Z 27009KT 26/05 A2996 RMK A01 T02580047  RH  026%=      5-min Rain = 0
KPG1 191554Z 27008KT 26/05 A2996 RMK A01 T02570046  RH  026%=      5-min Rain = 0
KPG1 191555Z 27008KT 26/05 A2996 RMK A01 T02550047  RH  026%=      5-min Rain = 0
KPG1 191556Z 30007KT 26/05 A2996 RMK A01 T02550047  RH  026%=      5-min Rain = 0
KPG1 191557Z 25007KT 26/05 A2996 RMK A01 T02570047  RH  026%=      5-min Rain = 0
KPG1 191558Z 25008KT 26/05 A2996 RMK A01 T02590048  RH  026%=      5-min Rain = 0
KPG1 191559Z 24008KT 26/05 A2996 RMK A01 T02610048  RH  026%=      5-min Rain = 0
KPG1 191600Z 25008KT 26/05 A2996 RMK A01 T02610047  RH  025%=      5-min Rain = 0
KPG1 191601Z 26010KT 26/05 A2996 RMK A01 T02610048  RH  025%=      5-min Rain = 0
KPG1 191602Z 28007KT 26/05 A2996 RMK A01 T02620047  RH  025%=      5-min Rain = 0
KPG1 191603Z 26008KT 26/05 A2996 RMK A01 T02610048  RH  025%=      5-min Rain = 0
KPG1 191604Z 26004KT 26/05 A2996 RMK A01 T02620047  RH  025%=      5-min Rain = 0
KPG1 191605Z 27006KT 26/05 A2996 RMK A01 T02610048  RH  025%=      5-min Rain = 0
KPG1 191606Z 26005KT 26/05 A2996 RMK A01 T02620048  RH  025%=      5-min Rain = 0
KPG1 191607Z 26007KT 26/05 A2996 RMK A01 T02640049  RH  025%=      5-min Rain = 0
KPG1 191608Z 26007KT 26/05 A2996 RMK A01 T02640048  RH  025%=      5-min Rain = 0
KPG1 191609Z 26006KT 26/05 A2996 RMK A01 T02640047  RH  025%=      5-min Rain = 0
KPG1 191610Z 24006G11KT 26/05 A2996 RMK A01 T02640049  RH  025%=      5-min Rain = 0
KPG1 191611Z 26007KT 27/05 A2996 RMK A01 T02660048  RH  025%=      5-min Rain = 0
KPG1 191612Z 27006KT 27/05 A2996 RMK A01 T02670048  RH  025%=      5-min Rain = 0
KPG1 191613Z 25007KT 27/05 A2996 RMK A01 T02660048  RH  025%=      5-min Rain = 0
KPG1 191614Z 26008KT 27/05 A2996 RMK A01 T02680048  RH  024%=      5-min Rain = 0
KPG1 191615Z 27009KT 27/05 A2996 RMK A01 T02680047  RH  024%=      5-min Rain = 0
KPG1 191616Z 26007KT 27/05 A2996 RMK A01 T02670047  RH  024%=      5-min Rain = 0
KPG1 191617Z 29005KT 27/05 A2996 RMK A01 T02660048  RH  025%=      5-min Rain = 0
KPG1 191618Z 29006KT 27/05 A2996 RMK A01 T02670046  RH  024%=      5-min Rain = 0
KPG1 191619Z 25007KT 27/05 A2996 RMK A01 T02650046  RH  024%=      5-min Rain = 0
KPG1 191620Z 25008KT 27/05 A2996 RMK A01 T02650045  RH  024%=      5-min Rain = 0
KPG1 191621Z 24009KT 27/05 A2996 RMK A01 T02650046  RH  024%=      5-min Rain = 0
KPG1 191622Z 24011KT 27/05 A2995 RMK A01 T02670046  RH  024%=      5-min Rain = 0
KPG1 191623Z 24010KT 27/05 A2995 RMK A01 T02700046  RH  024%=      5-min Rain = 0
KPG1 191624Z 23008KT 27/05 A2995 RMK A01 T02700045  RH  024%=      5-min Rain = 0
KPG1 191625Z 24009KT 27/05 A2995 RMK A01 T02690045  RH  024%=      5-min Rain = 0
KPG1 191626Z 23007KT 27/05 A2995 RMK A01 T02680045  RH  024%=      5-min Rain = 0
KPG1 191627Z 22006KT 27/04 A2995 RMK A01 T02680044  RH  024%=      5-min Rain = 0
KPG1 191628Z 23004G9KT 27/04 A2995 RMK A01 T02680044  RH  024%=      5-min Rain = 0
KPG1 191629Z 24009KT 27/05 A2995 RMK A01 T02690046  RH  024%=      5-min Rain = 0
KPG1 191630Z 26009KT 27/05 A2995 RMK A01 T02720046  RH  024%=      5-min Rain = 0
KPG1 191631Z 26008KT 27/05 A2996 RMK A01 T02720045  RH  023%=      5-min Rain = 0
KPG1 191632Z 27008KT 27/05 A2996 RMK A01 T02700045  RH  024%=      5-min Rain = 0
KPG1 191633Z 28008G13KT 27/05 A2995 RMK A01 T02700046  RH  024%=      5-min Rain = 0
KPG1 191634Z 27010KT 27/05 A2995 RMK A01 T02720046  RH  023%=      5-min Rain = 0
KPG1 191635Z 26006KT 27/05 A2995 RMK A01 T02720046  RH  023%=      5-min Rain = 0
KPG1 191636Z 26005KT 27/05 A2995 RMK A01 T02710046  RH  024%=      5-min Rain = 0
KPG1 191637Z 28006KT 27/05 A2995 RMK A01 T02710045  RH  024%=      5-min Rain = 0
KPG1 191638Z 27006KT 27/05 A2995 RMK A01 T02710045  RH  024%=      5-min Rain = 0
KPG1 191639Z 24008KT 27/05 A2995 RMK A01 T02720046  RH  023%=      5-min Rain = 0
KPG1 191640Z 24006KT 27/05 A2995 RMK A01 T02740045  RH  023%=      5-min Rain = 0
KPG1 191641Z 24005KT 27/05 A2995 RMK A01 T02730045  RH  023%=      5-min Rain = 0
KPG1 191642Z 26006KT 27/05 A2995 RMK A01 T02730046  RH  023%=      5-min Rain = 0
KPG1 191643Z 23002KT 27/05 A2995 RMK A01 T02740047  RH  023%=      5-min Rain = 0
KPG1 191644Z 20002KT 28/05 A2995 RMK A01 T02770047  RH  023%=      5-min Rain = 0
KPG1 191645Z 18002KT 28/05 A2995 RMK A01 T02800047  RH  023%=      5-min Rain = 0
KPG1 191646Z 21004KT 28/05 A2995 RMK A01 T02830047  RH  022%=      5-min Rain = 0
KPG1 191647Z 23007KT 29/05 A2995 RMK A01 T02850047  RH  022%=      5-min Rain = 0
KPG1 191648Z 25010KT 28/05 A2995 RMK A01 T02840048  RH  022%=      5-min Rain = 0
KPG1 191649Z 26007KT 28/05 A2995 RMK A01 T02820047  RH  022%=      5-min Rain = 0
KPG1 191650Z 24005KT 28/05 A2995 RMK A01 T02780046  RH  023%=      5-min Rain = 0
KPG1 191651Z 26008KT 28/05 A2995 RMK A01 T02760047  RH  023%=      5-min Rain = 0
KPG1 191652Z 25011KT 28/05 A2995 RMK A01 T02760048  RH  023%=      5-min Rain = 0
KPG1 191653Z 25010KT 28/05 A2995 RMK A01 T02770048  RH  023%=      5-min Rain = 0
KPG1 191654Z 24008KT 28/05 A2995 RMK A01 T02770049  RH  023%=      5-min Rain = 0
KPG1 191655Z 23007KT 28/05 A2995 RMK A01 T02760048  RH  023%=      5-min Rain = 0
KPG1 191656Z 24006KT 28/05 A2995 RMK A01 T02760049  RH  023%=      5-min Rain = 0
KPG1 191657Z 25011KT 28/05 A2995 RMK A01 T02770049  RH  023%=      5-min Rain = 0
KPG1 191658Z 27011KT 28/05 A2995 RMK A01 T02780049  RH  023%=      5-min Rain = 0
KPG1 191659Z 28010KT 28/05 A2995 RMK A01 T02780049  RH  023%=      5-min Rain = 0
KPG1 191700Z 26009KT 28/05 A2995 RMK A01 T02780049  RH  023%=      5-min Rain = 0
KPG1 191701Z 28007KT 28/05 A2995 RMK A01 T02780050  RH  023%=      5-min Rain = 0
KPG1 191702Z 28007KT 28/05 A2995 RMK A01 T02810049  RH  023%=      5-min Rain = 0
KPG1 191703Z 26005KT 28/05 A2995 RMK A01 T02790048  RH  023%=      5-min Rain = 0
KPG1 191704Z 26006KT 28/05 A2995 RMK A01 T02780048  RH  023%=      5-min Rain = 0
KPG1 191705Z 27009KT 28/05 A2995 RMK A01 T02780048  RH  023%=      5-min Rain = 0
KPG1 191706Z 25007KT 28/05 A2995 RMK A01 T02790049  RH  023%=      5-min Rain = 0
KPG1 191707Z 27008G13KT 28/05 A2995 RMK A01 T02820050  RH  023%=      5-min Rain = 0
KPG1 191708Z 27006KT 29/05 A2995 RMK A01 T02850047  RH  022%=      5-min Rain = 0
KPG1 191709Z 25007KT 28/05 A2995 RMK A01 T02830047  RH  022%=      5-min Rain = 0
KPG1 191710Z 25006KT 28/05 A2995 RMK A01 T02820046  RH  022%=      5-min Rain = 0
KPG1 191711Z 25006KT 28/05 A2995 RMK A01 T02800046  RH  023%=      5-min Rain = 0
KPG1 191712Z 28008KT 28/05 A2995 RMK A01 T02800048  RH  023%=      5-min Rain = 0
KPG1 191713Z 27009KT 28/05 A2995 RMK A01 T02830047  RH  022%=      5-min Rain = 0
KPG1 191714Z 27006KT 28/05 A2995 RMK A01 T02810045  RH  022%=      5-min Rain = 0
KPG1 191715Z 28006KT 28/05 A2995 RMK A01 T02800046  RH  022%=      5-min Rain = 0
KPG1 191716Z 27006G12KT 28/05 A2994 RMK A01 T02800045  RH  022%=      5-min Rain = 0
KPG1 191717Z 27010KT 28/05 A2994 RMK A01 T02810046  RH  022%=      5-min Rain = 0
KPG1 191718Z 26006KT 28/05 A2995 RMK A01 T02820045  RH  022%=      5-min Rain = 0
KPG1 191719Z 24005KT 28/04 A2994 RMK A01 T02810043  RH  022%=      5-min Rain = 0
KPG1 191720Z 23006KT 28/04 A2994 RMK A01 T02800044  RH  022%=      5-min Rain = 0
KPG1 191721Z 24007KT 28/04 A2994 RMK A01 T02800044  RH  022%=      5-min Rain = 0
KPG1 191722Z 22009G14KT 28/04 A2994 RMK A01 T02800043  RH  022%=      5-min Rain = 0
KPG1 191723Z 24010KT 28/04 A2994 RMK A01 T02820044  RH  022%=      5-min Rain = 0
KPG1 191724Z 23010KT 29/04 A2994 RMK A01 T02860044  RH  021%=      5-min Rain = 0
KPG1 191725Z 25009KT 29/04 A2994 RMK A01 T02870044  RH  021%=      5-min Rain = 0
KPG1 191726Z 25010KT 29/04 A2994 RMK A01 T02890044  RH  021%=      5-min Rain = 0
KPG1 191727Z 29008KT 29/04 A2994 RMK A01 T02890043  RH  021%=      5-min Rain = 0
KPG1 191728Z 28005KT 29/04 A2994 RMK A01 T02860042  RH  021%=      5-min Rain = 0
KPG1 191729Z 28012KT 29/04 A2994 RMK A01 T02860043  RH  021%=      5-min Rain = 0
KPG1 191730Z 27010KT 29/04 A2994 RMK A01 T02870043  RH  021%=      5-min Rain = 0
KPG1 191731Z 26010KT 29/04 A2994 RMK A01 T02880043  RH  021%=      5-min Rain = 0
KPG1 191732Z 28010KT 29/04 A2994 RMK A01 T02890043  RH  021%=      5-min Rain = 0
KPG1 191733Z 28008KT 29/04 A2994 RMK A01 T02900043  RH  021%=      5-min Rain = 0
KPG1 191734Z 28007KT 29/04 A2994 RMK A01 T02900042  RH  021%=      5-min Rain = 0
KPG1 191735Z 31009KT 29/04 A2994 RMK A01 T02880042  RH  021%=      5-min Rain = 0
KPG1 191736Z 29006KT 29/04 A2994 RMK A01 T02860040  RH  021%=      5-min Rain = 0
KPG1 191737Z 25008KT 28/04 A2994 RMK A01 T02840042  RH  021%=      5-min Rain = 0
KPG1 191738Z 27005KT 28/04 A2994 RMK A01 T02830041  RH  021%=      5-min Rain = 0
KPG1 191739Z 26008G16KT 28/04 A2994 RMK A01 T02830042  RH  021%=      5-min Rain = 0
KPG1 191740Z 28009KT 28/04 A2994 RMK A01 T02840041  RH  021%=      5-min Rain = 0
KPG1 191741Z 29006KT 29/04 A2994 RMK A01 T02860039  RH  021%=      5-min Rain = 0
KPG1 191742Z 28007G13KT 29/04 A2994 RMK A01 T02850039  RH  021%=      5-min Rain = 0
KPG1 191743Z 25014KT 29/04 A2994 RMK A01 T02850040  RH  021%=      5-min Rain = 0
KPG1 191744Z 27012KT 29/04 A2994 RMK A01 T02880040  RH  020%=      5-min Rain = 0
KPG1 191745Z 27010KT 29/04 A2994 RMK A01 T02890038  RH  020%=      5-min Rain = 0
KPG1 191746Z 25008KT 29/04 A2994 RMK A01 T02880037  RH  020%=      5-min Rain = 0
KPG1 191747Z 24008KT 29/04 A2994 RMK A01 T02870037  RH  020%=      5-min Rain = 0
KPG1 191748Z 23008KT 29/04 A2993 RMK A01 T02890039  RH  020%=      5-min Rain = 0
KPG1 191749Z 22008KT 29/04 A2993 RMK A01 T02910037  RH  020%=      5-min Rain = 0
KPG1 191750Z 23009KT 29/04 A2993 RMK A01 T02910037  RH  020%=      5-min Rain = 0
KPG1 191751Z 24009KT 29/04 A2993 RMK A01 T02910036  RH  020%=      5-min Rain = 0
KPG1 191752Z 24008KT 29/04 A2993 RMK A01 T02910035  RH  019%=      5-min Rain = 0
KPG1 191753Z 24010G16KT 29/04 A2993 RMK A01 T02900036  RH  020%=      5-min Rain = 0
KPG1 191754Z 26011KT 29/04 A2993 RMK A01 T02910036  RH  020%=      5-min Rain = 0
KPG1 191755Z 27015KT 29/03 A2993 RMK A01 T02920034  RH  019%=      5-min Rain = 0
KPG1 191756Z 27012KT 29/03 A2993 RMK A01 T02900032  RH  019%=      5-min Rain = 0
KPG1 191757Z 26011KT 29/03 A2993 RMK A01 T02880033  RH  019%=      5-min Rain = 0
KPG1 191758Z 26010KT 29/03 A2993 RMK A01 T02910033  RH  019%=      5-min Rain = 0
KPG1 191759Z 25009KT 29/03 A2993 RMK A01 T02920032  RH  019%=      5-min Rain = 0
KPG1 191800Z 28010KT 29/03 A2993 RMK A01 T02910033  RH  019%=      5-min Rain = 0
KPG1 191801Z 30006KT 29/03 A2993 RMK A01 T02900033  RH  019%=      5-min Rain = 0
KPG1 191802Z 30006KT 29/03 A2993 RMK A01 T02890034  RH  019%=      5-min Rain = 0
KPG1 191803Z 29006G12KT 29/03 A2993 RMK A01 T02890033  RH  019%=      5-min Rain = 0
KPG1 191804Z 27010KT 29/04 A2993 RMK A01 T02890035  RH  020%=      5-min Rain = 0
KPG1 191805Z 28009KT 29/04 A2993 RMK A01 T02910036  RH  020%=      5-min Rain = 0
KPG1 191806Z 26010KT 29/04 A2993 RMK A01 T02920037  RH  020%=      5-min Rain = 0
KPG1 191807Z 27011KT 29/04 A2993 RMK A01 T02940036  RH  019%=      5-min Rain = 0
KPG1 191808Z 28010KT 29/04 A2993 RMK A01 T02940035  RH  019%=      5-min Rain = 0
KPG1 191809Z 27013KT 29/04 A2993 RMK A01 T02930036  RH  019%=      5-min Rain = 0
KPG1 191810Z 28011KT 29/04 A2993 RMK A01 T02910035  RH  019%=      5-min Rain = 0
KPG1 191811Z 29009KT 29/04 A2993 RMK A01 T02890035  RH  020%=      5-min Rain = 0
KPG1 191812Z 30007KT 29/04 A2993 RMK A01 T02870035  RH  020%=      5-min Rain = 0
KPG1 191813Z 27008KT 29/04 A2993 RMK A01 T02860035  RH  020%=      5-min Rain = 0
KPG1 191814Z 27005KT 29/04 A2992 RMK A01 T02870036  RH  020%=      5-min Rain = 0
KPG1 191815Z 26006KT 29/04 A2992 RMK A01 T02890036  RH  020%=      5-min Rain = 0
KPG1 191816Z 26008KT 29/04 A2992 RMK A01 T02900035  RH  020%=      5-min Rain = 0
KPG1 191817Z 28010KT 29/04 A2992 RMK A01 T02910035  RH  020%=      5-min Rain = 0
KPG1 191818Z 27011KT 29/04 A2992 RMK A01 T02930037  RH  019%=      5-min Rain = 0
KPG1 191819Z 27012KT 30/04 A2992 RMK A01 T02950036  RH  019%=      5-min Rain = 0
KPG1 191820Z 27013KT 29/03 A2992 RMK A01 T02930034  RH  019%=      5-min Rain = 0
KPG1 191821Z 27010KT 29/03 A2992 RMK A01 T02920034  RH  019%=      5-min Rain = 0
KPG1 191822Z 27010G15KT 29/04 A2992 RMK A01 T02940036  RH  019%=      5-min Rain = 0
KPG1 191823Z 28013KT 30/04 A2992 RMK A01 T02980035  RH  019%=      5-min Rain = 0
KPG1 191824Z 28010KT 30/03 A2992 RMK A01 T02950032  RH  019%=      5-min Rain = 0
KPG1 191825Z 29008KT 29/03 A2992 RMK A01 T02900032  RH  019%=      5-min Rain = 0
KPG1 191826Z 26010G17KT 29/03 A2992 RMK A01 T02880034  RH  020%=      5-min Rain = 0
KPG1 191827Z 26015KT 29/04 A2992 RMK A01 T02900036  RH  020%=      5-min Rain = 0
KPG1 191828Z 26008KT 29/04 A2992 RMK A01 T02910037  RH  020%=      5-min Rain = 0
KPG1 191829Z 29009KT 29/04 A2992 RMK A01 T02890035  RH  020%=      5-min Rain = 0
KPG1 191830Z 29008KT 29/04 A2992 RMK A01 T02880035  RH  020%=      5-min Rain = 0
KPG1 191831Z 28011KT 29/04 A2992 RMK A01 T02890035  RH  020%=      5-min Rain = 0
KPG1 191832Z 30007G12KT 29/04 A2991 RMK A01 T02910035  RH  019%=      5-min Rain = 0
KPG1 191833Z 25008G14KT 29/04 A2991 RMK A01 T02900035  RH  020%=      5-min Rain = 0
KPG1 191834Z 26012KT 29/04 A2991 RMK A01 T02910037  RH  020%=      5-min Rain = 0
KPG1 191835Z 26009KT 29/04 A2991 RMK A01 T02920036  RH  019%=      5-min Rain = 0
KPG1 191836Z 25010KT 29/04 A2991 RMK A01 T02910037  RH  020%=      5-min Rain = 0
KPG1 191837Z 27010KT 29/04 A2991 RMK A01 T02940038  RH  020%=      5-min Rain = 0
KPG1 191838Z 26012KT 29/04 A2991 RMK A01 T02940036  RH  019%=      5-min Rain = 0
KPG1 191839Z 24010KT 29/04 A2991 RMK A01 T02930036  RH  019%=      5-min Rain = 0
KPG1 191840Z 25010KT 29/04 A2991 RMK A01 T02920036  RH  019%=      5-min Rain = 0
KPG1 191841Z 26010KT 29/04 A2991 RMK A01 T02920036  RH  019%=      5-min Rain = 0
KPG1 191842Z 24007KT 29/04 A2991 RMK A01 T02920036  RH  020%=      5-min Rain = 0
KPG1 191843Z 25006KT 29/04 A2991 RMK A01 T02910036  RH  020%=      5-min Rain = 0
KPG1 191844Z 28007KT 29/04 A2991 RMK A01 T02920038  RH  020%=      5-min Rain = 0
KPG1 191845Z 29009KT 30/04 A2991 RMK A01 T02980039  RH  019%=      5-min Rain = 0
KPG1 191846Z 28008KT 30/04 A2991 RMK A01 T02990037  RH  019%=      5-min Rain = 0
KPG1 191847Z 27008KT 30/04 A2991 RMK A01 T02950035  RH  019%=      5-min Rain = 0
KPG1 191848Z 23005KT 29/04 A299 RMK A01 T02930035  RH  019%=      5-min Rain = 0
KPG1 191849Z 24005KT 29/04 A299 RMK A01 T02930036  RH  019%=      5-min Rain = 0
KPG1 191850Z 24005KT 29/04 A299 RMK A01 T02920035  RH  019%=      5-min Rain = 0
KPG1 191851Z 26006KT 29/04 A299 RMK A01 T02930038  RH  020%=      5-min Rain = 0
KPG1 191852Z 25008KT 30/04 A299 RMK A01 T02960037  RH  019%=      5-min Rain = 0
KPG1 191853Z 26011KT 30/04 A299 RMK A01 T02970038  RH  019%=      5-min Rain = 0
KPG1 191854Z 25011KT 30/04 A299 RMK A01 T03000040  RH  019%=      5-min Rain = 0
KPG1 191855Z 27010KT 30/04 A299 RMK A01 T03010040  RH  019%=      5-min Rain = 0
KPG1 191856Z 30011KT 30/04 A299 RMK A01 T03030040  RH  019%=      5-min Rain = 0
KPG1 191857Z 28009KT 30/04 A299 RMK A01 T03000037  RH  019%=      5-min Rain = 0
KPG1 191858Z 30006KT 30/04 A299 RMK A01 T02950036  RH  019%=      5-min Rain = 0
KPG1 191859Z 30005KT 29/04 A299 RMK A01 T02920035  RH  019%=      5-min Rain = 0
KPG1 191900Z 26006KT 29/04 A299 RMK A01 T02910037  RH  020%=      5-min Rain = 0
KPG1 191901Z 21006KT 29/04 A299 RMK A01 T02930037  RH  020%=      5-min Rain = 0
KPG1 191902Z 22006KT 29/04 A299 RMK A01 T02940037  RH  019%=      5-min Rain = 0
KPG1 191903Z 25008KT 30/04 A299 RMK A01 T02960039  RH  019%=      5-min Rain = 0
KPG1 191904Z 27007KT 30/04 A2989 RMK A01 T02990040  RH  019%=      5-min Rain = 0
KPG1 191905Z 24010G15KT 30/04 A2989 RMK A01 T02980038  RH  019%=      5-min Rain = 0
KPG1 191906Z 25013KT 30/04 A2989 RMK A01 T02980038  RH  019%=      5-min Rain = 0
KPG1 191907Z 27013KT 30/04 A2989 RMK A01 T02990038  RH  019%=      5-min Rain = 0
KPG1 191908Z 26012G17KT 30/04 A2989 RMK A01 T02990036  RH  019%=      5-min Rain = 0
KPG1 191909Z 26011KT 30/04 A2989 RMK A01 T02970036  RH  019%=      5-min Rain = 0
KPG1 191910Z 26008KT 30/04 A2989 RMK A01 T02970036  RH  019%=      5-min Rain = 0
KPG1 191911Z 24008KT 30/04 A2989 RMK A01 T02980036  RH  019%=      5-min Rain = 0
KPG1 191912Z 23007KT 30/04 A2989 RMK A01 T02980037  RH  019%=      5-min Rain = 0
KPG1 191913Z 23006KT 30/04 A2989 RMK A01 T02960035  RH  019%=      5-min Rain = 0
KPG1 191914Z 22005KT 30/04 A2989 RMK A01 T02950036  RH  019%=      5-min Rain = 0
KPG1 191915Z 23005KT 30/04 A2989 RMK A01 T02970036  RH  019%=      5-min Rain = 0
KPG1 191916Z 24006KT 30/04 A2989 RMK A01 T02970037  RH  019%=      5-min Rain = 0
KPG1 191917Z 27011G16KT 30/04 A2989 RMK A01 T02980037  RH  019%=      5-min Rain = 0
KPG1 191918Z 27012KT 30/04 A2989 RMK A01 T02990036  RH  019%=      5-min Rain = 0
KPG1 191919Z 27008KT 30/04 A2989 RMK A01 T02970036  RH  019%=      5-min Rain = 0
KPG1 191920Z 30011KT 30/04 A2989 RMK A01 T02980036  RH  019%=      5-min Rain = 0
KPG1 191921Z 31013KT 30/04 A2989 RMK A01 T02980036  RH  019%=      5-min Rain = 0
KPG1 191922Z 32010KT 30/04 A2989 RMK A01 T02960036  RH  019%=      5-min Rain = 0
KPG1 191923Z 29008KT 30/04 A2989 RMK A01 T02950038  RH  019%=      5-min Rain = 0
KPG1 191924Z 29009KT 30/04 A2989 RMK A01 T02970037  RH  019%=      5-min Rain = 0
KPG1 191925Z 32005KT 30/04 A2989 RMK A01 T02950035  RH  019%=      5-min Rain = 0
KPG1 191926Z 28002G7KT 29/04 A2988 RMK A01 T02920035  RH  019%=      5-min Rain = 0
KPG1 191927Z 28005KT 29/04 A2988 RMK A01 T02940036  RH  019%=      5-min Rain = 0
KPG1 191928Z 30005KT 29/04 A2988 RMK A01 T02940036  RH  019%=      5-min Rain = 0
KPG1 191929Z 29007KT 30/04 A2988 RMK A01 T02950037  RH  019%=      5-min Rain = 0
KPG1 191930Z 29004G11KT 30/04 A2988 RMK A01 T02960036  RH  019%=      5-min Rain = 0
KPG1 191931Z 29009KT 30/04 A2988 RMK A01 T02950036  RH  019%=      5-min Rain = 0
KPG1 191932Z 29012KT 30/04 A2988 RMK A01 T02950038  RH  019%=      5-min Rain = 0
KPG1 191933Z 29012KT 30/04 A2988 RMK A01 T02960038  RH  019%=      5-min Rain = 0
KPG1 191934Z 29013KT 30/04 A2988 RMK A01 T02970038  RH  019%=      5-min Rain = 0
KPG1 191935Z 30009KT 30/04 A2988 RMK A01 T02970039  RH  019%=      5-min Rain = 0
KPG1 191936Z 31008KT 30/04 A2988 RMK A01 T02960039  RH  019%=      5-min Rain = 0
KPG1 191937Z 30006KT 30/04 A2988 RMK A01 T02980039  RH  019%=      5-min Rain = 0
KPG1 191938Z 29007G14KT 30/04 A2988 RMK A01 T03010040  RH  019%=      5-min Rain = 0
KPG1 191939Z 27011KT 30/04 A2987 RMK A01 T03020039  RH  019%=      5-min Rain = 0
KPG1 191940Z 28017G26KT 30/04 A2987 RMK A01 T03020038  RH  019%=      5-min Rain = 0
KPG1 191941Z 30012G21KT 30/04 A2987 RMK A01 T03020038  RH  019%=      5-min Rain = 0
KPG1 191942Z 25013KT 30/04 A2988 RMK A01 T03020038  RH  019%=      5-min Rain = 0
KPG1 191943Z 29010G16KT 30/04 A2988 RMK A01 T03010039  RH  019%=      5-min Rain = 0
KPG1 191944Z 28010KT 30/04 A2988 RMK A01 T03000038  RH  019%=      5-min Rain = 0
KPG1 191945Z 31009KT 30/04 A2988 RMK A01 T02980037  RH  019%=      5-min Rain = 0
KPG1 191946Z 32006KT 30/04 A2988 RMK A01 T02950036  RH  019%=      5-min Rain = 0
KPG1 191947Z 28012G18KT 29/04 A2988 RMK A01 T02920036  RH  020%=      5-min Rain = 0
KPG1 191948Z 28012KT 29/04 A2987 RMK A01 T02920036  RH  019%=      5-min Rain = 0
KPG1 191949Z 29011KT 30/04 A2987 RMK A01 T02950037  RH  019%=      5-min Rain = 0
KPG1 191950Z 32011KT 30/04 A2987 RMK A01 T02970036  RH  019%=      5-min Rain = 0
KPG1 191951Z 32009KT 29/04 A2987 RMK A01 T02940035  RH  019%=      5-min Rain = 0
KPG1 191952Z 32009KT 29/04 A2987 RMK A01 T02930036  RH  019%=      5-min Rain = 0
KPG1 191953Z 26007G12KT 29/04 A2987 RMK A01 T02940037  RH  019%=      5-min Rain = 0
KPG1 191954Z 28009KT 30/04 A2987 RMK A01 T02960037  RH  019%=      5-min Rain = 0
KPG1 191955Z 28010KT 30/04 A2987 RMK A01 T02980038  RH  019%=      5-min Rain = 0
KPG1 191956Z 31010KT 30/04 A2987 RMK A01 T02970037  RH  019%=      5-min Rain = 0
KPG1 191957Z 32009KT 30/04 A2987 RMK A01 T02950036  RH  019%=      5-min Rain = 0
KPG1 191958Z 32007KT 29/04 A2987 RMK A01 T02920036  RH  019%=      5-min Rain = 0
KPG1 191959Z 32005KT 29/04 A2987 RMK A01 T02920036  RH  020%=      5-min Rain = 0
KPG1 192000Z 32005KT 29/04 A2987 RMK A01 T02910036  RH  020%=      5-min Rain = 0
KPG1 192001Z 32003KT 29/04 A2987 RMK A01 T02910036  RH  020%=      5-min Rain = 0
KPG1 192002Z 29007KT 29/04 A2987 RMK A01 T02920037  RH  020%=      5-min Rain = 0
KPG1 192003Z 28008KT 29/04 A2987 RMK A01 T02930036  RH  019%=      5-min Rain = 0
KPG1 192004Z 28012KT 30/04 A2987 RMK A01 T02950037  RH  019%=      5-min Rain = 0
KPG1 192005Z 29009G15KT 30/04 A2987 RMK A01 T02970037  RH  019%=      5-min Rain = 0
KPG1 192006Z 32009KT 30/04 A2987 RMK A01 T02980037  RH  019%=      5-min Rain = 0
KPG1 192007Z 34006KT 30/04 A2987 RMK A01 T02980036  RH  019%=      5-min Rain = 0
KPG1 192008Z 31008KT 30/04 A2987 RMK A01 T02970037  RH  019%=      5-min Rain = 0
KPG1 192009Z 29012KT 30/04 A2986 RMK A01 T02980038  RH  019%=      5-min Rain = 0
KPG1 192010Z 26010KT 30/04 A2986 RMK A01 T03000039  RH  019%=      5-min Rain = 0
KPG1 192011Z 24012KT 30/04 A2986 RMK A01 T03020040  RH  019%=      5-min Rain = 0
KPG1 192012Z 23014KT 30/04 A2986 RMK A01 T03040040  RH  019%=      5-min Rain = 0
KPG1 192013Z 23012KT 30/04 A2986 RMK A01 T03040040  RH  019%=      5-min Rain = 0
KPG1 192014Z 26009KT 30/04 A2986 RMK A01 T03000039  RH  019%=      5-min Rain = 0
KPG1 192015Z 26006KT 30/04 A2986 RMK A01 T02980038  RH  019%=      5-min Rain = 0
KPG1 192016Z 25007KT 30/04 A2986 RMK A01 T02960039  RH  019%=      5-min Rain = 0
KPG1 192017Z 25010KT 30/04 A2986 RMK A01 T02960039  RH  020%=      5-min Rain = 0
KPG1 192018Z 24007KT 30/04 A2986 RMK A01 T02970040  RH  019%=      5-min Rain = 0
KPG1 192019Z 28009G15KT 30/04 A2986 RMK A01 T02980040  RH  019%=      5-min Rain = 0
KPG1 192020Z 28011KT 30/04 A2986 RMK A01 T02980040  RH  019%=      5-min Rain = 0
KPG1 192021Z 29008KT 30/04 A2986 RMK A01 T03000040  RH  019%=      5-min Rain = 0
KPG1 192022Z 29005KT 30/04 A2986 RMK A01 T02990039  RH  019%=      5-min Rain = 0
KPG1 192023Z 28008G13KT 30/04 A2986 RMK A01 T02980039  RH  019%=      5-min Rain = 0
KPG1 192024Z 29007KT 30/04 A2986 RMK A01 T02980040  RH  019%=      5-min Rain = 0
KPG1 192025Z 32005KT 30/04 A2986 RMK A01 T02990039  RH  019%=      5-min Rain = 0
KPG1 192026Z 27005G12KT 30/04 A2986 RMK A01 T02980039  RH  019%=      5-min Rain = 0
KPG1 192027Z 28011G16KT 30/04 A2986 RMK A01 T03000040  RH  019%=      5-min Rain = 0
KPG1 192028Z 27012KT 30/04 A2986 RMK A01 T03020041  RH  019%=      5-min Rain = 0
KPG1 192029Z 27010KT 30/04 A2986 RMK A01 T03030042  RH  019%=      5-min Rain = 0
KPG1 192030Z 28007KT 30/04 A2986 RMK A01 T03030042  RH  019%=      5-min Rain = 0
KPG1 192031Z 27008KT 30/04 A2986 RMK A01 T03020041  RH  019%=      5-min Rain = 0
KPG1 192032Z 29008KT 30/04 A2986 RMK A01 T03010041  RH  019%=      5-min Rain = 0
KPG1 192033Z 26010KT 30/04 A2986 RMK A01 T03030043  RH  019%=      5-min Rain = 0
KPG1 192034Z 27011KT 31/04 A2986 RMK A01 T03050042  RH  019%=      5-min Rain = 0
KPG1 192035Z 28006KT 30/04 A2986 RMK A01 T03040042  RH  019%=      5-min Rain = 0
KPG1 192036Z 32006KT 30/04 A2986 RMK A01 T03040042  RH  019%=      5-min Rain = 0
KPG1 192037Z 33008KT 30/04 A2986 RMK A01 T03030040  RH  019%=      5-min Rain = 0
KPG1 192038Z 30007KT 30/04 A2986 RMK A01 T02990040  RH  019%=      5-min Rain = 0
KPG1 192039Z 27008KT 30/04 A2986 RMK A01 T03000041  RH  019%=      5-min Rain = 0
KPG1 192040Z 28010KT 30/04 A2986 RMK A01 T03030042  RH  019%=      5-min Rain = 0
KPG1 192041Z 28007KT 31/04 A2986 RMK A01 T03060042  RH  019%=      5-min Rain = 0
KPG1 192042Z 27006KT 31/04 A2986 RMK A01 T03070042  RH  019%=      5-min Rain = 0
KPG1 192043Z 29007KT 31/04 A2986 RMK A01 T03070042  RH  019%=      5-min Rain = 0
KPG1 192044Z 27012KT 31/04 A2986 RMK A01 T03060042  RH  019%=      5-min Rain = 0
KPG1 192045Z 25008KT 30/04 A2986 RMK A01 T03020043  RH  019%=      5-min Rain = 0
KPG1 192046Z 28008KT 30/04 A2986 RMK A01 T03020043  RH  019%=      5-min Rain = 0
KPG1 192047Z 28007G13KT 30/04 A2986 RMK A01 T03010042  RH  019%=      5-min Rain = 0
KPG1 192048Z 27006G11KT 30/04 A2986 RMK A01 T02990042  RH  020%=      5-min Rain = 0
KPG1 192049Z 27008KT 30/04 A2985 RMK A01 T02990043  RH  020%=      5-min Rain = 0
KPG1 192050Z 24009KT 30/04 A2985 RMK A01 T03020044  RH  019%=      5-min Rain = 0
KPG1 192051Z 25010KT 31/04 A2985 RMK A01 T03050044  RH  019%=      5-min Rain = 0
KPG1 192052Z 27007KT 31/04 A2985 RMK A01 T03050043  RH  019%=      5-min Rain = 0
KPG1 192053Z 23009KT 30/04 A2985 RMK A01 T03040043  RH  019%=      5-min Rain = 0
KPG1 192054Z 22007KT 31/04 A2985 RMK A01 T03060044  RH  019%=      5-min Rain = 0
KPG1 192055Z 22007KT 31/04 A2985 RMK A01 T03070043  RH  019%=      5-min Rain = 0
KPG1 192056Z 21004KT 31/04 A2985 RMK A01 T03060043  RH  019%=      5-min Rain = 0
KPG1 192057Z 23003KT 31/04 A2985 RMK A01 T03050043  RH  019%=      5-min Rain = 0
KPG1 192058Z 25005KT 31/04 A2985 RMK A01 T03050044  RH  019%=      5-min Rain = 0
KPG1 192059Z 30007KT 31/04 A2985 RMK A01 T03070043  RH  019%=      5-min Rain = 0
KPG1 192100Z 31007G12KT 31/04 A2985 RMK A01 T03050042  RH  019%=      5-min Rain = 0
KPG1 192101Z 33008G13KT 30/04 A2985 RMK A01 T03030042  RH  019%=      5-min Rain = 0
KPG1 192102Z 00006KT 30/04 A2985 RMK A01 T03020041  RH  019%=      5-min Rain = 0
KPG1 192103Z 34008G13KT 30/04 A2985 RMK A01 T03010041  RH  019%=      5-min Rain = 0
KPG1 192104Z 01005KT 30/04 A2985 RMK A01 T02970040  RH  019%=      5-min Rain = 0
KPG1 192105Z 04005KT 30/04 A2985 RMK A01 T02950040  RH  020%=      5-min Rain = 0
KPG1 192106Z 01004KT 30/04 A2985 RMK A01 T02980042  RH  020%=      5-min Rain = 0
KPG1 192107Z 33003KT 30/04 A2985 RMK A01 T03010042  RH  019%=      5-min Rain = 0
KPG1 192108Z 02003KT 30/04 A2985 RMK A01 T03010041  RH  019%=      5-min Rain = 0
KPG1 192109Z 02002KT 30/04 A2985 RMK A01 T03010041  RH  019%=      5-min Rain = 0
KPG1 192110Z 22001KT 30/04 A2985 RMK A01 T03010041  RH  019%=      5-min Rain = 0
KPG1 192111Z 19005KT 30/04 A2985 RMK A01 T03030042  RH  019%=      5-min Rain = 0
KPG1 192112Z 15006KT 31/04 A2985 RMK A01 T03070043  RH  019%=      5-min Rain = 0
KPG1 192113Z 16006KT 31/04 A2985 RMK A01 T03080043  RH  019%=      5-min Rain = 0
KPG1 192114Z 19005KT 31/04 A2985 RMK A01 T03080042  RH  019%=      5-min Rain = 0
KPG1 192115Z 20004KT 31/04 A2985 RMK A01 T03070041  RH  019%=      5-min Rain = 0
KPG1 192116Z 22004KT 31/04 A2985 RMK A01 T03050041  RH  019%=      5-min Rain = 0
KPG1 192117Z 22002KT 30/04 A2984 RMK A01 T03040042  RH  019%=      5-min Rain = 0
KPG1 192118Z 22002KT 30/04 A2984 RMK A01 T03030041  RH  019%=      5-min Rain = 0
KPG1 192119Z 23003KT 30/04 A2984 RMK A01 T03030042  RH  019%=      5-min Rain = 0
KPG1 192120Z 24002KT 31/04 A2984 RMK A01 T03050042  RH  019%=      5-min Rain = 0
KPG1 192121Z 27003KT 31/04 A2984 RMK A01 T03060042  RH  019%=      5-min Rain = 0
KPG1 192122Z 28003KT 31/04 A2984 RMK A01 T03060041  RH  019%=      5-min Rain = 0
KPG1 192123Z 30009G14KT 31/04 A2984 RMK A01 T03050043  RH  019%=      5-min Rain = 0
KPG1 192124Z 31007KT 30/04 A2984 RMK A01 T03040044  RH  019%=      5-min Rain = 0
KPG1 192125Z 01005KT 30/04 A2984 RMK A01 T03020044  RH  019%=      5-min Rain = 0
KPG1 192126Z 31003KT 30/04 A2984 RMK A01 T03000044  RH  020%=      5-min Rain = 0
KPG1 192127Z 28005KT 30/04 A2984 RMK A01 T03000044  RH  020%=      5-min Rain = 0
KPG1 192128Z 26008KT 30/05 A2984 RMK A01 T03010045  RH  020%=      5-min Rain = 0
KPG1 192129Z 24007KT 30/05 A2984 RMK A01 T03020045  RH  020%=      5-min Rain = 0
KPG1 192130Z 24005KT 30/05 A2984 RMK A01 T03030045  RH  020%=      5-min Rain = 0
KPG1 192131Z 31002KT 30/05 A2984 RMK A01 T03040045  RH  019%=      5-min Rain = 0
KPG1 192132Z 10001KT 31/05 A2984 RMK A01 T03060045  RH  019%=      5-min Rain = 0
KPG1 192133Z 30003KT 31/05 A2984 RMK A01 T03080045  RH  019%=      5-min Rain = 0
KPG1 192134Z 35002KT 31/04 A2984 RMK A01 T03080044  RH  019%=      5-min Rain = 0
KPG1 192135Z 19002KT 31/05 A2984 RMK A01 T03080045  RH  019%=      5-min Rain = 0
KPG1 192136Z 22008KT 31/04 A2984 RMK A01 T03100041  RH  018%=      5-min Rain = 0
KPG1 192137Z 24009KT 31/04 A2984 RMK A01 T03110038  RH  018%=      5-min Rain = 0
KPG1 192138Z 24012KT 31/04 A2984 RMK A01 T03120039  RH  018%=      5-min Rain = 0
KPG1 192139Z 23011KT 31/04 A2984 RMK A01 T03120037  RH  018%=      5-min Rain = 0
KPG1 192140Z 22008KT 31/04 A2984 RMK A01 T03100037  RH  018%=      5-min Rain = 0
KPG1 192141Z 21007KT 31/04 A2984 RMK A01 T03100037  RH  018%=      5-min Rain = 0
KPG1 192142Z 22004KT 31/04 A2984 RMK A01 T03100037  RH  018%=      5-min Rain = 0
KPG1 192143Z 22001KT 31/04 A2984 RMK A01 T03090036  RH  018%=      5-min Rain = 0
KPG1 192144Z 11001KT 31/04 A2984 RMK A01 T03070036  RH  018%=      5-min Rain = 0
KPG1 192145Z 30002KT 31/04 A2984 RMK A01 T03070037  RH  018%=      5-min Rain = 0
KPG1 192146Z 30002KT 31/04 A2984 RMK A01 T03070036  RH  018%=      5-min Rain = 0
KPG1 192147Z 30002KT 31/04 A2984 RMK A01 T03050036  RH  018%=      5-min Rain = 0
KPG1 192148Z 29001KT 30/04 A2984 RMK A01 T03030036  RH  018%=      5-min Rain = 0
KPG1 192149Z 28001KT 30/04 A2984 RMK A01 T03040036  RH  018%=      5-min Rain = 0
KPG1 192150Z 16003KT 31/04 A2984 RMK A01 T03060037  RH  018%=      5-min Rain = 0
KPG1 192151Z 18003KT 31/04 A2984 RMK A01 T03090037  RH  018%=      5-min Rain = 0
KPG1 192152Z 25008KT 31/04 A2984 RMK A01 T03100039  RH  018%=      5-min Rain = 0
KPG1 192153Z 27009KT 31/04 A2984 RMK A01 T03120043  RH  018%=      5-min Rain = 0
KPG1 192154Z 28006KT 31/04 A2984 RMK A01 T03100043  RH  019%=      5-min Rain = 0
KPG1 192155Z 26005KT 31/04 A2984 RMK A01 T03090043  RH  019%=      5-min Rain = 0
KPG1 192156Z 27008KT 31/04 A2984 RMK A01 T03090043  RH  019%=      5-min Rain = 0
KPG1 192157Z 26008KT 31/04 A2984 RMK A01 T03090043  RH  019%=      5-min Rain = 0
KPG1 192158Z 27006KT 31/04 A2984 RMK A01 T03090040  RH  018%=      5-min Rain = 0
KPG1 192159Z 24005KT 31/04 A2984 RMK A01 T03100041  RH  018%=      5-min Rain = 0
KPG1 192200Z 26007G12KT 31/04 A2984 RMK A01 T03130040  RH  018%=      5-min Rain = 0
KPG1 192201Z 26007KT 31/04 A2984 RMK A01 T03140039  RH  018%=      5-min Rain = 0
KPG1 192202Z 25003KT 31/04 A2984 RMK A01 T03110040  RH  018%=      5-min Rain = 0
KPG1 192203Z 23003KT 31/04 A2984 RMK A01 T03120040  RH  018%=      5-min Rain = 0
KPG1 192204Z 27004G9KT 31/04 A2984 RMK A01 T03140040  RH  018%=      5-min Rain = 0
KPG1 192205Z 27008KT 31/04 A2984 RMK A01 T03140039  RH  018%=      5-min Rain = 0
KPG1 192206Z 30008KT 31/04 A2984 RMK A01 T03120038  RH  018%=      5-min Rain = 0
KPG1 192207Z 31008KT 31/04 A2984 RMK A01 T03090037  RH  018%=      5-min Rain = 0
KPG1 192208Z 30006KT 31/04 A2984 RMK A01 T03070036  RH  018%=      5-min Rain = 0
KPG1 192209Z 28004KT 30/04 A2984 RMK A01 T03040036  RH  018%=      5-min Rain = 0
KPG1 192210Z 26005KT 31/04 A2984 RMK A01 T03050038  RH  018%=      5-min Rain = 0
KPG1 192211Z 24008KT 31/04 A2984 RMK A01 T03070039  RH  018%=      5-min Rain = 0
KPG1 192212Z 23008KT 31/04 A2984 RMK A01 T03100038  RH  018%=      5-min Rain = 0
KPG1 192213Z 24007KT 31/04 A2984 RMK A01 T03100038  RH  018%=      5-min Rain = 0
KPG1 192214Z 26006KT 31/04 A2984 RMK A01 T03110038  RH  018%=      5-min Rain = 0
KPG1 192215Z 25006KT 31/04 A2984 RMK A01 T03110037  RH  018%=      5-min Rain = 0
KPG1 192216Z 22004KT 31/04 A2984 RMK A01 T03080035  RH  018%=      5-min Rain = 0
KPG1 192217Z 21004KT 31/04 A2984 RMK A01 T03070036  RH  018%=      5-min Rain = 0
KPG1 192218Z 22006KT 31/04 A2984 RMK A01 T03060036  RH  018%=      5-min Rain = 0
KPG1 192219Z 26011KT 31/04 A2984 RMK A01 T03070037  RH  018%=      5-min Rain = 0
KPG1 192220Z 26011KT 31/04 A2984 RMK A01 T03090037  RH  018%=      5-min Rain = 0
KPG1 192221Z 26010KT 31/04 A2984 RMK A01 T03090037  RH  018%=      5-min Rain = 0
KPG1 192222Z 26010KT 31/04 A2984 RMK A01 T03090038  RH  018%=      5-min Rain = 0
KPG1 192223Z 27007KT 31/04 A2984 RMK A01 T03070037  RH  018%=      5-min Rain = 0
KPG1 192224Z 26006KT 31/04 A2984 RMK A01 T03060037  RH  018%=      5-min Rain = 0
KPG1 192225Z 26005KT 31/04 A2984 RMK A01 T03060037  RH  018%=      5-min Rain = 0
KPG1 192226Z 27003KT 31/04 A2984 RMK A01 T03060036  RH  018%=      5-min Rain = 0
KPG1 192227Z 26006KT 31/04 A2984 RMK A01 T03060036  RH  018%=      5-min Rain = 0
KPG1 192228Z 26004KT 31/04 A2984 RMK A01 T03080038  RH  018%=      5-min Rain = 0
KPG1 192229Z 28003KT 31/04 A2984 RMK A01 T03090037  RH  018%=      5-min Rain = 0
KPG1 192230Z 23003KT 31/04 A2984 RMK A01 T03090037  RH  018%=      5-min Rain = 0
KPG1 192231Z 24006KT 31/04 A2984 RMK A01 T03100038  RH  018%=      5-min Rain = 0
KPG1 192232Z 24007KT 31/04 A2984 RMK A01 T03110038  RH  018%=      5-min Rain = 0
KPG1 192233Z 24008KT 31/04 A2984 RMK A01 T03100038  RH  018%=      5-min Rain = 0
KPG1 192234Z 26006KT 31/04 A2984 RMK A01 T03090038  RH  018%=      5-min Rain = 0
KPG1 192235Z 27007KT 31/04 A2984 RMK A01 T03090037  RH  018%=      5-min Rain = 0
KPG1 192236Z 28005KT 31/04 A2984 RMK A01 T03080036  RH  018%=      5-min Rain = 0
KPG1 192237Z 23001KT 31/04 A2984 RMK A01 T03050036  RH  018%=      5-min Rain = 0
KPG1 192238Z 26003KT 30/04 A2984 RMK A01 T03040036  RH  018%=      5-min Rain = 0
KPG1 192239Z 26002KT 31/04 A2984 RMK A01 T03050035  RH  018%=      5-min Rain = 0
KPG1 192240Z 22002KT 31/04 A2984 RMK A01 T03060035  RH  018%=      5-min Rain = 0
KPG1 192241Z 26002KT 31/04 A2984 RMK A01 T03060035  RH  018%=      5-min Rain = 0
KPG1 192242Z 28002KT 31/04 A2984 RMK A01 T03060036  RH  018%=      5-min Rain = 0
KPG1 192243Z 28004KT 31/04 A2984 RMK A01 T03060037  RH  018%=      5-min Rain = 0
KPG1 192244Z 28005KT 31/04 A2984 RMK A01 T03060039  RH  018%=      5-min Rain = 0
KPG1 192245Z 30005KT 31/04 A2984 RMK A01 T03050038  RH  018%=      5-min Rain = 0
KPG1 192246Z 30002KT 31/04 A2984 RMK A01 T03050039  RH  018%=      5-min Rain = 0
KPG1 192247Z 18002KT 31/04 A2984 RMK A01 T03060039  RH  018%=      5-min Rain = 0
KPG1 192248Z 18002KT 31/04 A2984 RMK A01 T03080038  RH  018%=      5-min Rain = 0
KPG1 192249Z 25003KT 31/04 A2984 RMK A01 T03070038  RH  018%=      5-min Rain = 0
KPG1 192250Z 30003KT 31/04 A2984 RMK A01 T03070039  RH  018%=      5-min Rain = 0
KPG1 192251Z 29001KT 31/04 A2984 RMK A01 T03060039  RH  018%=      5-min Rain = 0
KPG1 192252Z 26001KT 31/04 A2984 RMK A01 T03070039  RH  018%=      5-min Rain = 0
KPG1 192253Z 22004KT 31/04 A2984 RMK A01 T03090040  RH  018%=      5-min Rain = 0
KPG1 192254Z 23004KT 31/04 A2984 RMK A01 T03100040  RH  018%=      5-min Rain = 0
KPG1 192255Z 26005KT 31/04 A2984 RMK A01 T03120042  RH  018%=      5-min Rain = 0
KPG1 192256Z 27002KT 31/04 A2984 RMK A01 T03130043  RH  018%=      5-min Rain = 0
KPG1 192257Z 19003KT 31/04 A2984 RMK A01 T03130042  RH  018%=      5-min Rain = 0
KPG1 192258Z 21005KT 31/04 A2984 RMK A01 T03140042  RH  018%=      5-min Rain = 0
KPG1 192259Z 21005G10KT 32/04 A2984 RMK A01 T03150042  RH  018%=      5-min Rain = 0
KPG1 192300Z 22010KT 32/04 A2984 RMK A01 T03150043  RH  018%=      5-min Rain = 0
KPG1 192301Z 22008KT 31/04 A2984 RMK A01 T03130042  RH  018%=      5-min Rain = 0
KPG1 192302Z 22006KT 31/04 A2984 RMK A01 T03100042  RH  018%=      5-min Rain = 0
KPG1 192303Z 22007KT 31/04 A2984 RMK A01 T03100043  RH  018%=      5-min Rain = 0
KPG1 192304Z 23007KT 31/04 A2984 RMK A01 T03100042  RH  018%=      5-min Rain = 0
KPG1 192305Z 28005KT 31/04 A2984 RMK A01 T03090039  RH  018%=      5-min Rain = 0
KPG1 192306Z 27006KT 31/04 A2984 RMK A01 T03090037  RH  018%=      5-min Rain = 0
KPG1 192307Z 24007KT 31/04 A2984 RMK A01 T03100040  RH  018%=      5-min Rain = 0
KPG1 192308Z 25007KT 31/04 A2984 RMK A01 T03090041  RH  018%=      5-min Rain = 0
KPG1 192309Z 26009KT 31/04 A2984 RMK A01 T03090038  RH  018%=      5-min Rain = 0
KPG1 192310Z 26007KT 31/04 A2984 RMK A01 T03080038  RH  018%=      5-min Rain = 0
KPG1 192311Z 26007KT 31/04 A2984 RMK A01 T03060038  RH  018%=      5-min Rain = 0
KPG1 192312Z 26006KT 31/04 A2984 RMK A01 T03050038  RH  018%=      5-min Rain = 0
KPG1 192313Z 27006KT 31/04 A2984 RMK A01 T03050039  RH  019%=      5-min Rain = 0
KPG1 192314Z 27007KT 30/04 A2984 RMK A01 T03040039  RH  019%=      5-min Rain = 0
KPG1 192315Z 26006KT 30/04 A2984 RMK A01 T03040039  RH  019%=      5-min Rain = 0
KPG1 192316Z 25005KT 30/04 A2984 RMK A01 T03030040  RH  019%=      5-min Rain = 0
KPG1 192317Z 24006KT 30/04 A2984 RMK A01 T03030040  RH  019%=      5-min Rain = 0
KPG1 192318Z 25006KT 30/04 A2984 RMK A01 T03030038  RH  019%=      5-min Rain = 0
KPG1 192319Z 26007KT 30/04 A2984 RMK A01 T03040040  RH  019%=      5-min Rain = 0
KPG1 192320Z 24005KT 31/04 A2984 RMK A01 T03050041  RH  019%=      5-min Rain = 0
KPG1 192321Z 24005KT 30/04 A2984 RMK A01 T03040040  RH  019%=      5-min Rain = 0
KPG1 192322Z 25004KT 30/04 A2984 RMK A01 T03040040  RH  019%=      5-min Rain = 0
KPG1 192323Z 25004KT 30/04 A2984 RMK A01 T03040040  RH  019%=      5-min Rain = 0
KPG1 192324Z 26004KT 30/04 A2984 RMK A01 T03040038  RH  018%=      5-min Rain = 0
KPG1 192325Z 23005KT 30/04 A2984 RMK A01 T03040039  RH  019%=      5-min Rain = 0
KPG1 192326Z 26003KT 31/04 A2984 RMK A01 T03050039  RH  018%=      5-min Rain = 0
KPG1 192327Z 25004KT 31/04 A2984 RMK A01 T03060037  RH  018%=      5-min Rain = 0
KPG1 192328Z 27003KT 31/04 A2984 RMK A01 T03060036  RH  018%=      5-min Rain = 0
KPG1 192329Z 28004KT 31/04 A2984 RMK A01 T03060036  RH  018%=      5-min Rain = 0
KPG1 192330Z 28007KT 31/04 A2984 RMK A01 T03060035  RH  018%=      5-min Rain = 0
KPG1 192331Z 27006KT 31/04 A2984 RMK A01 T03050035  RH  018%=      5-min Rain = 0
KPG1 192332Z 28005KT 30/03 A2984 RMK A01 T03020034  RH  018%=      5-min Rain = 0
KPG1 192333Z 28007KT 30/04 A2984 RMK A01 T03010035  RH  018%=      5-min Rain = 0
KPG1 192334Z 28006KT 30/04 A2984 RMK A01 T03010035  RH  018%=      5-min Rain = 0
KPG1 192335Z 28004KT 30/04 A2984 RMK A01 T03000035  RH  019%=      5-min Rain = 0
KPG1 192336Z 25006KT 30/04 A2984 RMK A01 T02990035  RH  019%=      5-min Rain = 0
KPG1 192337Z 25005KT 30/04 A2984 RMK A01 T02990036  RH  019%=      5-min Rain = 0
KPG1 192338Z 24004KT 30/04 A2984 RMK A01 T03000035  RH  019%=      5-min Rain = 0
KPG1 192339Z 23003KT 30/04 A2984 RMK A01 T03000036  RH  019%=      5-min Rain = 0
KPG1 192340Z 22004KT 30/04 A2984 RMK A01 T03010036  RH  019%=      5-min Rain = 0
KPG1 192341Z 25005KT 30/04 A2984 RMK A01 T03010036  RH  019%=      5-min Rain = 0
KPG1 192342Z 28006KT 30/04 A2984 RMK A01 T03010037  RH  019%=      5-min Rain = 0
KPG1 192343Z 28005KT 30/04 A2984 RMK A01 T03010037  RH  019%=      5-min Rain = 0
KPG1 192344Z 29004KT 30/04 A2984 RMK A01 T03000037  RH  019%=      5-min Rain = 0
KPG1 192345Z 29005KT 30/04 A2984 RMK A01 T03000038  RH  019%=      5-min Rain = 0
KPG1 192346Z 28006KT 30/04 A2984 RMK A01 T02990038  RH  019%=      5-min Rain = 0
KPG1 192347Z 29006KT 30/04 A2984 RMK A01 T02990038  RH  019%=      5-min Rain = 0
KPG1 192348Z 28007KT 30/04 A2984 RMK A01 T02980037  RH  019%=      5-min Rain = 0
KPG1 192349Z 29005KT 30/04 A2984 RMK A01 T02980037  RH  019%=      5-min Rain = 0
KPG1 192350Z 28005KT 30/04 A2984 RMK A01 T02970038  RH  019%=      5-min Rain = 0
KPG1 192351Z 29006KT 30/04 A2984 RMK A01 T02960037  RH  019%=      5-min Rain = 0
KPG1 192352Z 29004KT 30/04 A2984 RMK A01 T02960038  RH  019%=      5-min Rain = 0
KPG1 192353Z 29005KT 30/04 A2984 RMK A01 T02960038  RH  019%=      5-min Rain = 0
KPG1 192354Z 28004KT 30/04 A2984 RMK A01 T02960038  RH  019%=      5-min Rain = 0
KPG1 192355Z 27004KT 30/04 A2984 RMK A01 T02960038  RH  019%=      5-min Rain = 0
KPG1 192356Z 27004KT 30/04 A2984 RMK A01 T02960038  RH  019%=      5-min Rain = 0
KPG1 192357Z 26004KT 30/04 A2984 RMK A01 T02950038  RH  019%=      5-min Rain = 0
KPG1 192358Z 27004KT 30/04 A2984 RMK A01 T02950039  RH  020%=      5-min Rain = 0
KPG1 192359Z 27006KT 30/04 A2984 RMK A01 T02950039  RH  020%=      5-min Rain = 0
KPG1 200000Z 28006KT 29/04 A2984 RMK A01 T02940038  RH  019%=      5-min Rain = 0
KPG1 200001Z 29005KT 29/04 A2984 RMK A01 T02940037  RH  019%=      5-min Rain = 0
KPG1 200002Z 28003KT 29/04 A2984 RMK A01 T02940038  RH  020%=      5-min Rain = 0
KPG1 200003Z 28003KT 29/04 A2984 RMK A01 T02930038  RH  020%=      5-min Rain = 0
KPG1 200004Z 26003KT 29/04 A2984 RMK A01 T02930037  RH  020%=      5-min Rain = 0
KPG1 200005Z 25003KT 29/04 A2984 RMK A01 T02930037  RH  020%=      5-min Rain = 0
KPG1 200006Z 26003KT 29/04 A2984 RMK A01 T02930038  RH  020%=      5-min Rain = 0
KPG1 200007Z 25003KT 29/04 A2984 RMK A01 T02930038  RH  020%=      5-min Rain = 0
KPG1 200008Z 26003KT 29/04 A2984 RMK A01 T02930038  RH  020%=      5-min Rain = 0
KPG1 200009Z 28002KT 29/04 A2984 RMK A01 T02920038  RH  020%=      5-min Rain = 0
KPG1 200010Z 28002KT 29/04 A2984 RMK A01 T02910038  RH  020%=      5-min Rain = 0
KPG1 200011Z 27003KT 29/04 A2984 RMK A01 T02900037  RH  020%=      5-min Rain = 0
KPG1 200012Z 28003KT 29/04 A2984 RMK A01 T02890037  RH  020%=      5-min Rain = 0
KPG1 200013Z 28003KT 29/04 A2984 RMK A01 T02890037  RH  020%=      5-min Rain = 0
KPG1 200014Z 27003KT 29/04 A2984 RMK A01 T02880037  RH  020%=      5-min Rain = 0
KPG1 200015Z 27004KT 29/04 A2984 RMK A01 T02870037  RH  020%=      5-min Rain = 0
KPG1 200016Z 28003KT 29/04 A2984 RMK A01 T02860037  RH  020%=      5-min Rain = 0
KPG1 200017Z 28004KT 29/04 A2984 RMK A01 T02850036  RH  020%=      5-min Rain = 0
KPG1 200018Z 28003KT 28/04 A2984 RMK A01 T02840036  RH  020%=      5-min Rain = 0
KPG1 200019Z 28004KT 28/04 A2984 RMK A01 T02840036  RH  020%=      5-min Rain = 0
KPG1 200020Z 29004KT 28/04 A2984 RMK A01 T02840036  RH  020%=      5-min Rain = 0
KPG1 200021Z 29005KT 28/04 A2984 RMK A01 T02840036  RH  020%=      5-min Rain = 0
KPG1 200022Z 30003KT 28/04 A2984 RMK A01 T02830035  RH  020%=      5-min Rain = 0
KPG1 200023Z 29003KT 28/04 A2984 RMK A01 T02830035  RH  020%=      5-min Rain = 0
KPG1 200024Z 29004KT 28/04 A2984 RMK A01 T02830035  RH  020%=      5-min Rain = 0
KPG1 200025Z 29004KT 28/04 A2984 RMK A01 T02830035  RH  020%=      5-min Rain = 0
KPG1 200026Z 29004KT 28/04 A2984 RMK A01 T02820035  RH  021%=      5-min Rain = 0
KPG1 200027Z 29004KT 28/04 A2984 RMK A01 T02810035  RH  021%=      5-min Rain = 0
KPG1 200028Z 28005KT 28/03 A2984 RMK A01 T02810034  RH  021%=      5-min Rain = 0
KPG1 200029Z 28004KT 28/03 A2985 RMK A01 T02810034  RH  021%=      5-min Rain = 0
KPG1 200030Z 29004KT 28/03 A2985 RMK A01 T02800034  RH  021%=      5-min Rain = 0
KPG1 200031Z 29004KT 28/03 A2985 RMK A01 T02800034  RH  021%=      5-min Rain = 0
KPG1 200032Z 29003KT 28/03 A2985 RMK A01 T02800034  RH  021%=      5-min Rain = 0
KPG1 200033Z 29004KT 28/03 A2985 RMK A01 T02790034  RH  021%=      5-min Rain = 0
KPG1 200034Z 29004KT 28/03 A2985 RMK A01 T02790034  RH  021%=      5-min Rain = 0
KPG1 200035Z 29004KT 28/03 A2985 RMK A01 T02790034  RH  021%=      5-min Rain = 0
KPG1 200036Z 30004KT 28/03 A2985 RMK A01 T02790033  RH  021%=      5-min Rain = 0
KPG1 200037Z 31003KT 28/03 A2985 RMK A01 T02800033  RH  021%=      5-min Rain = 0
KPG1 200038Z 30003KT 28/03 A2985 RMK A01 T02800033  RH  021%=      5-min Rain = 0
KPG1 200039Z 30003KT 28/03 A2985 RMK A01 T02790033  RH  021%=      5-min Rain = 0
KPG1 200040Z 29003KT 28/03 A2985 RMK A01 T02790033  RH  021%=      5-min Rain = 0
KPG1 200041Z 30003KT 28/03 A2985 RMK A01 T02790033  RH  021%=      5-min Rain = 0
KPG1 200042Z 30002KT 28/03 A2985 RMK A01 T02790033  RH  021%=      5-min Rain = 0
KPG1 200043Z 30003KT 28/03 A2985 RMK A01 T02790034  RH  021%=      5-min Rain = 0
KPG1 200044Z 31003KT 28/04 A2985 RMK A01 T02780035  RH  021%=      5-min Rain = 0
KPG1 200045Z 31003KT 28/04 A2985 RMK A01 T02770035  RH  021%=      5-min Rain = 0
KPG1 200046Z 31003KT 28/04 A2985 RMK A01 T02770036  RH  021%=      5-min Rain = 0
KPG1 200047Z 31004KT 28/04 A2985 RMK A01 T02770035  RH  021%=      5-min Rain = 0
KPG1 200048Z 31004KT 28/04 A2985 RMK A01 T02760035  RH  021%=      5-min Rain = 0
KPG1 200049Z 31003KT 28/04 A2985 RMK A01 T02750035  RH  021%=      5-min Rain = 0
KPG1 200050Z 31003KT 28/04 A2985 RMK A01 T02750035  RH  021%=      5-min Rain = 0
KPG1 200051Z 30004KT 28/04 A2985 RMK A01 T02750035  RH  021%=      5-min Rain = 0
KPG1 200052Z 30004KT 27/04 A2985 RMK A01 T02740036  RH  022%=      5-min Rain = 0
KPG1 200053Z 31004KT 27/04 A2985 RMK A01 T02740035  RH  022%=      5-min Rain = 0
KPG1 200054Z 31003KT 28/04 A2985 RMK A01 T02750036  RH  022%=      5-min Rain = 0
KPG1 200055Z 31004KT 28/04 A2985 RMK A01 T02750036  RH  022%=      5-min Rain = 0
KPG1 200056Z 30004KT 27/04 A2985 RMK A01 T02740036  RH  022%=      5-min Rain = 0
KPG1 200057Z 30004KT 28/04 A2985 RMK A01 T02750036  RH  022%=      5-min Rain = 0
KPG1 200058Z 31004KT 28/04 A2985 RMK A01 T02750037  RH  022%=      5-min Rain = 0
KPG1 200059Z 30003KT 28/04 A2985 RMK A01 T02750037  RH  022%=      5-min Rain = 0
KPG1 200100Z 30003KT 28/04 A2986 RMK A01 T02750037  RH  022%=      5-min Rain = 0
KPG1 200101Z 30004KT 27/04 A2986 RMK A01 T02740037  RH  022%=      5-min Rain = 0
KPG1 200102Z 31005KT 27/04 A2986 RMK A01 T02740038  RH  022%=      5-min Rain = 0
KPG1 200103Z 31006KT 28/04 A2986 RMK A01 T02750039  RH  022%=      5-min Rain = 0
KPG1 200104Z 31005KT 28/04 A2986 RMK A01 T02760039  RH  022%=      5-min Rain = 0
KPG1 200105Z 31004KT 28/04 A2986 RMK A01 T02760039  RH  022%=      5-min Rain = 0
KPG1 200106Z 31005KT 28/04 A2986 RMK A01 T02750039  RH  022%=      5-min Rain = 0
KPG1 200107Z 31005KT 27/04 A2986 RMK A01 T02740039  RH  022%=      5-min Rain = 0
KPG1 200108Z 31005KT 27/04 A2986 RMK A01 T02730039  RH  022%=      5-min Rain = 0
KPG1 200109Z 31005KT 27/04 A2986 RMK A01 T02740040  RH  022%=      5-min Rain = 0
KPG1 200110Z 31005KT 27/04 A2986 RMK A01 T02740040  RH  022%=      5-min Rain = 0
KPG1 200111Z 31005KT 27/04 A2986 RMK A01 T02740040  RH  022%=      5-min Rain = 0
KPG1 200112Z 31004KT 27/04 A2986 RMK A01 T02740040  RH  022%=      5-min Rain = 0
KPG1 200113Z 31006KT 27/04 A2986 RMK A01 T02740040  RH  022%=      5-min Rain = 0
KPG1 200114Z 31005KT 27/04 A2986 RMK A01 T02730040  RH  022%=      5-min Rain = 0
KPG1 200115Z 31005KT 27/04 A2986 RMK A01 T02730040  RH  022%=      5-min Rain = 0
KPG1 200116Z 30005KT 27/04 A2986 RMK A01 T02730041  RH  023%=      5-min Rain = 0
KPG1 200117Z 31004KT 27/04 A2986 RMK A01 T02720040  RH  023%=      5-min Rain = 0
KPG1 200118Z 31005KT 27/04 A2986 RMK A01 T02720041  RH  023%=      5-min Rain = 0
KPG1 200119Z 30005KT 27/04 A2986 RMK A01 T02710041  RH  023%=      5-min Rain = 0
KPG1 200120Z 31004KT 27/04 A2986 RMK A01 T02710041  RH  023%=      5-min Rain = 0
KPG1 200121Z 31005KT 27/04 A2986 RMK A01 T02710042  RH  023%=      5-min Rain = 0
KPG1 200122Z 31005KT 27/04 A2986 RMK A01 T02710042  RH  023%=      5-min Rain = 0
KPG1 200123Z 31005KT 27/04 A2986 RMK A01 T02720042  RH  023%=      5-min Rain = 0
KPG1 200124Z 30005KT 27/04 A2986 RMK A01 T02720042  RH  023%=      5-min Rain = 0
KPG1 200125Z 30005KT 27/04 A2986 RMK A01 T02720042  RH  023%=      5-min Rain = 0
KPG1 200126Z 31005KT 27/04 A2986 RMK A01 T02730042  RH  023%=      5-min Rain = 0
KPG1 200127Z 31004KT 27/04 A2986 RMK A01 T02740043  RH  023%=      5-min Rain = 0
KPG1 200128Z 31005KT 27/04 A2986 RMK A01 T02740043  RH  023%=      5-min Rain = 0
KPG1 200129Z 30005KT 27/04 A2986 RMK A01 T02730043  RH  023%=      5-min Rain = 0
KPG1 200130Z 31004KT 27/04 A2986 RMK A01 T02730043  RH  023%=      5-min Rain = 0
KPG1 200131Z 31006KT 27/04 A2986 RMK A01 T02730042  RH  023%=      5-min Rain = 0
KPG1 200132Z 31005KT 27/04 A2986 RMK A01 T02720042  RH  023%=      5-min Rain = 0
KPG1 200133Z 32005KT 27/04 A2986 RMK A01 T02730042  RH  023%=      5-min Rain = 0
KPG1 200134Z 32004KT 27/04 A2986 RMK A01 T02720042  RH  023%=      5-min Rain = 0
KPG1 200135Z 31005KT 27/04 A2986 RMK A01 T02710042  RH  023%=      5-min Rain = 0
KPG1 200136Z 31006KT 27/04 A2986 RMK A01 T02700042  RH  023%=      5-min Rain = 0
KPG1 200137Z 31006KT 27/04 A2986 RMK A01 T02700042  RH  023%=      5-min Rain = 0
KPG1 200138Z 31005KT 27/04 A2987 RMK A01 T02700042  RH  023%=      5-min Rain = 0
KPG1 200139Z 32006KT 27/04 A2987 RMK A01 T02700042  RH  023%=      5-min Rain = 0
KPG1 200140Z 32006KT 27/04 A2987 RMK A01 T02700042  RH  023%=      5-min Rain = 0
KPG1 200141Z 31006KT 27/04 A2987 RMK A01 T02700042  RH  023%=      5-min Rain = 0
KPG1 200142Z 32005KT 27/04 A2987 RMK A01 T02700042  RH  023%=      5-min Rain = 0
KPG1 200143Z 32005KT 27/04 A2987 RMK A01 T02700041  RH  023%=      5-min Rain = 0
KPG1 200144Z 32005KT 27/04 A2987 RMK A01 T02700042  RH  023%=      5-min Rain = 0
KPG1 200145Z 31006KT 27/04 A2987 RMK A01 T02700042  RH  023%=      5-min Rain = 0
KPG1 200146Z 32006KT 27/04 A2987 RMK A01 T02700042  RH  023%=      5-min Rain = 0
KPG1 200147Z 32006KT 27/04 A2987 RMK A01 T02700041  RH  023%=      5-min Rain = 0
KPG1 200148Z 32005KT 27/04 A2987 RMK A01 T02700041  RH  023%=      5-min Rain = 0
KPG1 200149Z 32005KT 27/04 A2987 RMK A01 T02700041  RH  023%=      5-min Rain = 0
KPG1 200150Z 31006KT 27/04 A2987 RMK A01 T02700041  RH  023%=      5-min Rain = 0
KPG1 200151Z 30006KT 27/04 A2987 RMK A01 T02690040  RH  023%=      5-min Rain = 0
KPG1 200152Z 31005KT 27/04 A2987 RMK A01 T02690040  RH  023%=      5-min Rain = 0
KPG1 200153Z 31005KT 27/04 A2987 RMK A01 T02700040  RH  023%=      5-min Rain = 0
KPG1 200154Z 31006KT 27/04 A2987 RMK A01 T02700039  RH  023%=      5-min Rain = 0
KPG1 200155Z 31007KT 27/04 A2987 RMK A01 T02710039  RH  023%=      5-min Rain = 0
KPG1 200156Z 31006KT 27/04 A2987 RMK A01 T02710038  RH  022%=      5-min Rain = 0
KPG1 200157Z 31006KT 27/04 A2987 RMK A01 T02720038  RH  022%=      5-min Rain = 0
KPG1 200158Z 31005KT 27/04 A2987 RMK A01 T02720038  RH  022%=      5-min Rain = 0
KPG1 200159Z 31005KT 27/04 A2987 RMK A01 T02720038  RH  022%=      5-min Rain = 0
KPG1 200200Z 31005KT 27/04 A2987 RMK A01 T02710038  RH  022%=      5-min Rain = 0
KPG1 200201Z 32005KT 27/04 A2987 RMK A01 T02710038  RH  022%=      5-min Rain = 0
KPG1 200202Z 31005KT 27/04 A2987 RMK A01 T02700038  RH  022%=      5-min Rain = 0
KPG1 200203Z 31005KT 27/04 A2987 RMK A01 T02700038  RH  023%=      5-min Rain = 0
KPG1 200204Z 31006KT 27/04 A2987 RMK A01 T02700038  RH  023%=      5-min Rain = 0
KPG1 200205Z 31005KT 27/04 A2987 RMK A01 T02690038  RH  023%=      5-min Rain = 0
KPG1 200206Z 31005KT 27/04 A2987 RMK A01 T02690038  RH  023%=      5-min Rain = 0
KPG1 200207Z 31006KT 27/04 A2987 RMK A01 T02690038  RH  023%=      5-min Rain = 0
KPG1 200208Z 30005KT 27/04 A2987 RMK A01 T02690037  RH  023%=      5-min Rain = 0
KPG1 200209Z 31005KT 27/04 A2987 RMK A01 T02690037  RH  022%=      5-min Rain = 0
KPG1 200210Z 31005KT 27/04 A2987 RMK A01 T02690037  RH  022%=      5-min Rain = 0
KPG1 200211Z 30005KT 27/04 A2987 RMK A01 T02700037  RH  022%=      5-min Rain = 0
KPG1 200212Z 31005KT 27/04 A2987 RMK A01 T02700037  RH  022%=      5-min Rain = 0
KPG1 200213Z 30005KT 27/04 A2987 RMK A01 T02690037  RH  022%=      5-min Rain = 0
KPG1 200214Z 31004KT 27/04 A2987 RMK A01 T02690037  RH  022%=      5-min Rain = 0
KPG1 200215Z 30005KT 27/04 A2987 RMK A01 T02680036  RH  022%=      5-min Rain = 0
KPG1 200216Z 30003KT 27/04 A2987 RMK A01 T02680037  RH  023%=      5-min Rain = 0
KPG1 200217Z 30001KT 27/04 A2987 RMK A01 T02670037  RH  023%=      5-min Rain = 0
KPG1 200218Z 19001KT 26/04 A2987 RMK A01 T02610037  RH  024%=      5-min Rain = 0
KPG1 200219Z 16001KT 25/04 A2987 RMK A01 T02540036  RH  024%=      5-min Rain = 0
KPG1 200220Z 15002KT 25/04 A2987 RMK A01 T02500036  RH  025%=      5-min Rain = 0
KPG1 200221Z 14002KT 25/04 A2987 RMK A01 T02480036  RH  025%=      5-min Rain = 0
KPG1 200222Z 13001KT 25/04 A2987 RMK A01 T02450036  RH  026%=      5-min Rain = 0
KPG1 200223Z 14001KT 24/04 A2987 RMK A01 T02430036  RH  026%=      5-min Rain = 0
KPG1 200224Z 16001KT 24/04 A2987 RMK A01 T02420036  RH  026%=      5-min Rain = 0
KPG1 200225Z 19001KT 24/04 A2987 RMK A01 T02400036  RH  026%=      5-min Rain = 0
KPG1 200226Z 18001KT 24/04 A2987 RMK A01 T02400036  RH  027%=      5-min Rain = 0
KPG1 200227Z 17002KT 24/04 A2987 RMK A01 T02430036  RH  026%=      5-min Rain = 0
KPG1 200228Z 18002KT 25/04 A2987 RMK A01 T02450036  RH  026%=      5-min Rain = 0
KPG1 200229Z 19002KT 25/04 A2987 RMK A01 T02460037  RH  026%=      5-min Rain = 0
KPG1 200230Z 20001KT 25/04 A2987 RMK A01 T02450036  RH  026%=      5-min Rain = 0
KPG1 200231Z 19002KT 24/04 A2987 RMK A01 T02430036  RH  026%=      5-min Rain = 0
KPG1 200232Z 18001KT 24/04 A2987 RMK A01 T02410036  RH  026%=      5-min Rain = 0
KPG1 200233Z 20001KT 24/04 A2987 RMK A01 T02410037  RH  026%=      5-min Rain = 0
KPG1 200234Z 23002KT 24/04 A2987 RMK A01 T02390036  RH  027%=      5-min Rain = 0
KPG1 200235Z 22002KT 24/04 A2987 RMK A01 T02380036  RH  027%=      5-min Rain = 0
KPG1 200236Z 21002KT 24/04 A2988 RMK A01 T02370036  RH  027%=      5-min Rain = 0
KPG1 200237Z 21001KT 24/04 A2988 RMK A01 T02370036  RH  027%=      5-min Rain = 0
KPG1 200238Z 25000KT 24/04 A2988 RMK A01 T02370036  RH  027%=      5-min Rain = 0
KPG1 200239Z 03001KT 24/04 A2988 RMK A01 T02360036  RH  027%=      5-min Rain = 0
KPG1 200240Z 02003KT 23/04 A2988 RMK A01 T02330035  RH  027%=      5-min Rain = 0
KPG1 200241Z 03007KT 23/04 A2988 RMK A01 T02320036  RH  028%=      5-min Rain = 0
KPG1 200242Z 01006KT 23/04 A2988 RMK A01 T02330038  RH  028%=      5-min Rain = 0
KPG1 200243Z 01005KT 24/04 A2988 RMK A01 T02350040  RH  028%=      5-min Rain = 0
KPG1 200244Z 00005KT 24/04 A2988 RMK A01 T02380041  RH  028%=      5-min Rain = 0
KPG1 200245Z 00005KT 24/04 A2988 RMK A01 T02390040  RH  028%=      5-min Rain = 0
KPG1 200246Z 00006KT 24/04 A2988 RMK A01 T02390040  RH  027%=      5-min Rain = 0
KPG1 200247Z 01006KT 24/04 A2988 RMK A01 T02390040  RH  027%=      5-min Rain = 0
KPG1 200248Z 01006KT 24/04 A2988 RMK A01 T02390038  RH  027%=      5-min Rain = 0
KPG1 200249Z 04006KT 24/04 A2988 RMK A01 T02380035  RH  027%=      5-min Rain = 0
KPG1 200250Z 04006KT 24/03 A2988 RMK A01 T02380033  RH  026%=      5-min Rain = 0
KPG1 200251Z 04006KT 24/03 A2988 RMK A01 T02390030  RH  026%=      5-min Rain = 0
KPG1 200252Z 03008KT 24/03 A2988 RMK A01 T02380029  RH  025%=      5-min Rain = 0
KPG1 200253Z 03009KT 24/03 A2988 RMK A01 T02380027  RH  025%=      5-min Rain = 0
KPG1 200254Z 01009KT 24/03 A2988 RMK A01 T02380028  RH  025%=      5-min Rain = 0
KPG1 200255Z 01009KT 24/03 A2988 RMK A01 T02380030  RH  026%=      5-min Rain = 0
KPG1 200256Z 01009KT 24/03 A2988 RMK A01 T02380032  RH  026%=      5-min Rain = 0
KPG1 200257Z 01009KT 24/03 A2988 RMK A01 T02370032  RH  026%=      5-min Rain = 0
KPG1 200258Z 01009KT 24/03 A2988 RMK A01 T02360031  RH  026%=      5-min Rain = 0
KPG1 200259Z 01009KT 24/03 A2988 RMK A01 T02370030  RH  026%=      5-min Rain = 0
KPG1 200300Z 01010KT 24/03 A2988 RMK A01 T02370030  RH  026%=      5-min Rain = 0
KPG1 200301Z 01010KT 24/03 A2988 RMK A01 T02380030  RH  026%=      5-min Rain = 0
KPG1 200302Z 01009KT 24/03 A2988 RMK A01 T02370028  RH  025%=      5-min Rain = 0
KPG1 200303Z 01010KT 24/03 A2988 RMK A01 T02380027  RH  025%=      5-min Rain = 0
KPG1 200304Z 01010KT 24/03 A2989 RMK A01 T02380027  RH  025%=      5-min Rain = 0
KPG1 200305Z 02010KT 24/03 A2989 RMK A01 T02390026  RH  025%=      5-min Rain = 0
KPG1 200306Z 02009KT 24/03 A2989 RMK A01 T02390025  RH  025%=      5-min Rain = 0
KPG1 200307Z 03008KT 24/03 A2989 RMK A01 T02390026  RH  025%=      5-min Rain = 0
KPG1 200308Z 03009KT 24/03 A2989 RMK A01 T02370026  RH  025%=      5-min Rain = 0
KPG1 200309Z 03009KT 24/03 A2989 RMK A01 T02350026  RH  025%=      5-min Rain = 0
KPG1 200310Z 03009KT 24/03 A2989 RMK A01 T02350026  RH  025%=      5-min Rain = 0
KPG1 200311Z 02009KT 24/03 A2989 RMK A01 T02350026  RH  025%=      5-min Rain = 0
KPG1 200312Z 02009KT 24/03 A2989 RMK A01 T02350025  RH  025%=      5-min Rain = 0
KPG1 200313Z 03009KT 23/03 A2989 RMK A01 T02340025  RH  025%=      5-min Rain = 0
KPG1 200314Z 02009KT 23/03 A2989 RMK A01 T02320026  RH  026%=      5-min Rain = 0
KPG1 200315Z 03009KT 23/03 A2989 RMK A01 T02310025  RH  026%=      5-min Rain = 0
KPG1 200316Z 02008KT 23/03 A2989 RMK A01 T02300026  RH  026%=      5-min Rain = 0
KPG1 200317Z 02009KT 23/03 A2989 RMK A01 T02280026  RH  027%=      5-min Rain = 0
KPG1 200318Z 02009KT 23/03 A2989 RMK A01 T02270025  RH  027%=      5-min Rain = 0
KPG1 200319Z 02009KT 23/02 A2989 RMK A01 T02270024  RH  026%=      5-min Rain = 0
KPG1 200320Z 02009KT 23/02 A2989 RMK A01 T02300023  RH  026%=      5-min Rain = 0
KPG1 200321Z 02010KT 23/02 A2989 RMK A01 T02330023  RH  025%=      5-min Rain = 0
KPG1 200322Z 03010KT 24/02 A2989 RMK A01 T02350023  RH  025%=      5-min Rain = 0
KPG1 200323Z 02010KT 24/02 A2989 RMK A01 T02360022  RH  025%=      5-min Rain = 0
KPG1 200324Z 03009KT 24/02 A2989 RMK A01 T02370022  RH  025%=      5-min Rain = 0
KPG1 200325Z 03010KT 24/02 A2989 RMK A01 T02350022  RH  025%=      5-min Rain = 0
KPG1 200326Z 03011KT 23/02 A2989 RMK A01 T02340021  RH  025%=      5-min Rain = 0
KPG1 200327Z 02009KT 23/02 A2989 RMK A01 T02330021  RH  025%=      5-min Rain = 0
KPG1 200328Z 02010KT 23/02 A2989 RMK A01 T02330022  RH  025%=      5-min Rain = 0
KPG1 200329Z 02011KT 23/02 A2989 RMK A01 T02310021  RH  025%=      5-min Rain = 0
KPG1 200330Z 02011KT 23/02 A2989 RMK A01 T02330021  RH  025%=      5-min Rain = 0
KPG1 200331Z 02011KT 24/02 A2989 RMK A01 T02350021  RH  025%=      5-min Rain = 0
KPG1 200332Z 03010KT 24/02 A2989 RMK A01 T02360021  RH  024%=      5-min Rain = 0
KPG1 200333Z 03010KT 24/02 A2989 RMK A01 T02360021  RH  024%=      5-min Rain = 0
KPG1 200334Z 02010KT 24/02 A2989 RMK A01 T02350020  RH  024%=      5-min Rain = 0
KPG1 200335Z 02011KT 23/02 A2989 RMK A01 T02340020  RH  024%=      5-min Rain = 0
KPG1 200336Z 02012KT 24/02 A2989 RMK A01 T02350020  RH  024%=      5-min Rain = 0
KPG1 200337Z 03012KT 24/02 A2989 RMK A01 T02360019  RH  024%=      5-min Rain = 0
KPG1 200338Z 02012KT 24/02 A2989 RMK A01 T02370019  RH  024%=      5-min Rain = 0
KPG1 200339Z 03012KT 24/02 A2989 RMK A01 T02360019  RH  024%=      5-min Rain = 0
KPG1 200340Z 03010KT 24/02 A2989 RMK A01 T02360019  RH  024%=      5-min Rain = 0
KPG1 200341Z 03012KT 24/02 A2989 RMK A01 T02350019  RH  024%=      5-min Rain = 0
KPG1 200342Z 03012KT 23/02 A2989 RMK A01 T02340018  RH  024%=      5-min Rain = 0
KPG1 200343Z 03012KT 23/02 A2989 RMK A01 T02340019  RH  024%=      5-min Rain = 0
KPG1 200344Z 03011KT 23/02 A299 RMK A01 T02340018  RH  024%=      5-min Rain = 0
KPG1 200345Z 02011KT 23/02 A2989 RMK A01 T02330018  RH  024%=      5-min Rain = 0
KPG1 200346Z 03011KT 23/02 A2989 RMK A01 T02320018  RH  024%=      5-min Rain = 0
KPG1 200347Z 02011KT 23/02 A2989 RMK A01 T02320018  RH  024%=      5-min Rain = 0
KPG1 200348Z 02012KT 23/02 A2989 RMK A01 T02320018  RH  024%=      5-min Rain = 0
KPG1 200349Z 02012KT 23/02 A2989 RMK A01 T02330018  RH  024%=      5-min Rain = 0
KPG1 200350Z 02012KT 23/02 A299 RMK A01 T02340017  RH  024%=      5-min Rain = 0
KPG1 200351Z 02012KT 24/02 A2989 RMK A01 T02350017  RH  024%=      5-min Rain = 0
KPG1 200352Z 02012KT 24/02 A2989 RMK A01 T02360017  RH  024%=      5-min Rain = 0
KPG1 200353Z 02013KT 24/02 A2989 RMK A01 T02370017  RH  024%=      5-min Rain = 0
KPG1 200354Z 02012KT 24/02 A299 RMK A01 T02370016  RH  023%=      5-min Rain = 0
KPG1 200355Z 03010KT 24/02 A299 RMK A01 T02370017  RH  024%=      5-min Rain = 0
KPG1 200356Z 02011KT 23/02 A299 RMK A01 T02330016  RH  024%=      5-min Rain = 0
KPG1 200357Z 02012KT 23/02 A299 RMK A01 T02310016  RH  024%=      5-min Rain = 0
KPG1 200358Z 02013KT 23/02 A299 RMK A01 T02340017  RH  024%=      5-min Rain = 0
KPG1 200359Z 02012KT 24/02 A299 RMK A01 T02350016  RH  024%=      5-min Rain = 0
KPG1 200400Z 01011KT 24/02 A299 RMK A01 T02360016  RH  024%=      5-min Rain = 0
KPG1 200401Z 01012KT 24/02 A299 RMK A01 T02360016  RH  024%=      5-min Rain = 0
KPG1 200402Z 01011KT 24/02 A299 RMK A01 T02370016  RH  023%=      5-min Rain = 0
KPG1 200403Z 02011KT 24/02 A299 RMK A01 T02370016  RH  023%=      5-min Rain = 0
KPG1 200404Z 02011KT 24/02 A299 RMK A01 T02360015  RH  023%=      5-min Rain = 0
KPG1 200405Z 02010KT 24/02 A299 RMK A01 T02350016  RH  024%=      5-min Rain = 0
KPG1 200406Z 03010KT 24/02 A299 RMK A01 T02350015  RH  024%=      5-min Rain = 0
KPG1 200407Z 03011KT 23/02 A299 RMK A01 T02340016  RH  024%=      5-min Rain = 0
KPG1 200408Z 02010KT 23/02 A299 RMK A01 T02310016  RH  024%=      5-min Rain = 0
KPG1 200409Z 01010KT 23/02 A299 RMK A01 T02290015  RH  024%=      5-min Rain = 0
KPG1 200410Z 01011KT 23/02 A299 RMK A01 T02300015  RH  024%=      5-min Rain = 0
KPG1 200411Z 01012KT 23/02 A299 RMK A01 T02330016  RH  024%=      5-min Rain = 0
KPG1 200412Z 00011KT 24/02 A299 RMK A01 T02350016  RH  024%=      5-min Rain = 0
KPG1 200413Z 02010KT 24/02 A299 RMK A01 T02350015  RH  024%=      5-min Rain = 0
KPG1 200414Z 02011KT 23/02 A299 RMK A01 T02340015  RH  024%=      5-min Rain = 0
KPG1 200415Z 02010KT 23/02 A299 RMK A01 T02340015  RH  024%=      5-min Rain = 0
KPG1 200416Z 02011KT 23/02 A299 RMK A01 T02340015  RH  024%=      5-min Rain = 0
KPG1 200417Z 02011KT 23/02 A299 RMK A01 T02340015  RH  024%=      5-min Rain = 0
KPG1 200418Z 02012KT 24/02 A299 RMK A01 T02350015  RH  024%=      5-min Rain = 0
KPG1 200419Z 02011KT 23/02 A299 RMK A01 T02340015  RH  024%=      5-min Rain = 0
KPG1 200420Z 02010KT 23/02 A299 RMK A01 T02340015  RH  024%=      5-min Rain = 0
KPG1 200421Z 01011KT 23/02 A299 RMK A01 T02330015  RH  024%=      5-min Rain = 0
KPG1 200422Z 01011KT 23/02 A299 RMK A01 T02330015  RH  024%=      5-min Rain = 0
KPG1 200423Z 01011KT 23/02 A299 RMK A01 T02330015  RH  024%=      5-min Rain = 0
KPG1 200424Z 02011KT 23/02 A299 RMK A01 T02330015  RH  024%=      5-min Rain = 0
KPG1 200425Z 02012KT 23/02 A299 RMK A01 T02330015  RH  024%=      5-min Rain = 0
KPG1 200426Z 01012KT 23/02 A299 RMK A01 T02330015  RH  024%=      5-min Rain = 0
KPG1 200427Z 01012KT 23/02 A299 RMK A01 T02320015  RH  024%=      5-min Rain = 0
KPG1 200428Z 01011KT 23/02 A299 RMK A01 T02320015  RH  024%=      5-min Rain = 0
KPG1 200429Z 01013KT 23/01 A299 RMK A01 T02320014  RH  024%=      5-min Rain = 0
KPG1 200430Z 01013KT 23/01 A299 RMK A01 T02320014  RH  024%=      5-min Rain = 0
KPG1 200431Z 01013KT 23/01 A299 RMK A01 T02320014  RH  024%=      5-min Rain = 0
KPG1 200432Z 01012KT 23/01 A299 RMK A01 T02330014  RH  024%=      5-min Rain = 0
KPG1 200433Z 01012KT 23/01 A299 RMK A01 T02330014  RH  024%=      5-min Rain = 0
KPG1 200434Z 01013KT 23/01 A299 RMK A01 T02330014  RH  024%=      5-min Rain = 0
KPG1 200435Z 01013KT 23/01 A299 RMK A01 T02330014  RH  024%=      5-min Rain = 0
KPG1 200436Z 00013KT 23/01 A299 RMK A01 T02320014  RH  024%=      5-min Rain = 0
KPG1 200437Z 01012KT 23/01 A299 RMK A01 T02320014  RH  024%=      5-min Rain = 0
KPG1 200438Z 01012KT 23/01 A299 RMK A01 T02320014  RH  024%=      5-min Rain = 0
KPG1 200439Z 01012KT 23/01 A299 RMK A01 T02320014  RH  024%=      5-min Rain = 0
KPG1 200440Z 01013KT 23/01 A299 RMK A01 T02320014  RH  024%=      5-min Rain = 0
KPG1 200441Z 00013KT 23/01 A299 RMK A01 T02320014  RH  024%=      5-min Rain = 0
KPG1 200442Z 01012KT 23/01 A299 RMK A01 T02320014  RH  024%=      5-min Rain = 0
KPG1 200443Z 01012KT 23/01 A299 RMK A01 T02320013  RH  024%=      5-min Rain = 0
KPG1 200444Z 01012KT 23/01 A299 RMK A01 T02320013  RH  024%=      5-min Rain = 0
KPG1 200445Z 01011KT 23/01 A299 RMK A01 T02310013  RH  024%=      5-min Rain = 0
KPG1 200446Z 01012KT 23/01 A299 RMK A01 T02310013  RH  024%=      5-min Rain = 0
KPG1 200447Z 01013KT 23/01 A299 RMK A01 T02320013  RH  024%=      5-min Rain = 0
KPG1 200448Z 01013KT 23/01 A299 RMK A01 T02320013  RH  024%=      5-min Rain = 0
KPG1 200449Z 01012KT 23/01 A299 RMK A01 T02320013  RH  024%=      5-min Rain = 0
KPG1 200450Z 01012KT 23/01 A299 RMK A01 T02310013  RH  024%=      5-min Rain = 0
KPG1 200451Z 01012KT 23/01 A299 RMK A01 T02310013  RH  024%=      5-min Rain = 0
KPG1 200452Z 01012KT 23/01 A2989 RMK A01 T02300013  RH  024%=      5-min Rain = 0
KPG1 200453Z 01012KT 23/01 A299 RMK A01 T02310013  RH  024%=      5-min Rain = 0
KPG1 200454Z 01012KT 23/01 A2989 RMK A01 T02310013  RH  024%=      5-min Rain = 0
KPG1 200455Z 01012KT 23/01 A2989 RMK A01 T02320013  RH  024%=      5-min Rain = 0
KPG1 200456Z 01012KT 23/01 A2989 RMK A01 T02310013  RH  024%=      5-min Rain = 0
KPG1 200457Z 01012KT 23/01 A2989 RMK A01 T02300012  RH  024%=      5-min Rain = 0
KPG1 200458Z 01012KT 23/01 A2989 RMK A01 T02310013  RH  024%=      5-min Rain = 0
KPG1 200459Z 01012KT 23/01 A2989 RMK A01 T02300012  RH  024%=      5-min Rain = 0

Page generated in 0.1423 seconds.